Wetterdaten: Samstag, 18.03.2023
Datum Zeit Temp. Aussen Temp. o. S. Temp +5cm Feuchte Auss Luftdruck Regen Sonnenschein Regendauer Solar Windben Empfang
18.03.2023 00:00 12,3 C 11,1 C 7,2 C 79 % 1009,0 hPa 0,0 l/m 0 min 0 min 0 W/m 6,4 km/h (2 Bft) 97,92 %
18.03.2023 00:02 12,3 C 11,1 C 7,2 C 79 % 1009,0 hPa 0,0 l/m 0 min 0 min 0 W/m 12,9 km/h (3 Bft) 95,56 %
18.03.2023 00:04 12,3 C 11,1 C 7,2 C 79 % 1009,0 hPa 0,0 l/m 0 min 0 min 0 W/m 6,4 km/h (2 Bft) 95,65 %
18.03.2023 00:07 12,2 C 11,1 C 7,2 C 80 % 1009,0 hPa 0,0 l/m 0 min 0 min 0 W/m 16,1 km/h (3 Bft) 95,12 %
18.03.2023 00:08 12,2 C 11,1 C 7,2 C 79 % 1009,0 hPa 0,0 l/m 0 min 0 min 0 W/m 12,9 km/h (3 Bft) 100,00 %
18.03.2023 00:10 12,2 C 11,1 C 7,2 C 80 % 1009,0 hPa 0,0 l/m 0 min 0 min 0 W/m 6,4 km/h (2 Bft) 96,00 %
18.03.2023 00:12 12,1 C 10,6 C 7,2 C 80 % 1008,9 hPa 0,0 l/m 0 min 0 min 0 W/m 12,9 km/h (3 Bft) 97,87 %
18.03.2023 00:14 12,1 C 10,6 C 7,2 C 81 % 1009,0 hPa 0,0 l/m 0 min 0 min 0 W/m 6,4 km/h (2 Bft) 100,00 %
18.03.2023 00:19 11,9 C 10,6 C 7,2 C 81 % 1009,0 hPa 0,0 l/m 0 min 0 min 0 W/m 12,9 km/h (3 Bft) 100,00 %
18.03.2023 00:20 11,9 C 10,6 C 7,2 C 81 % 1009,0 hPa 0,0 l/m 0 min 0 min 0 W/m 3,2 km/h (1 Bft) 100,00 %
18.03.2023 00:22 11,9 C 10,6 C 6,7 C 81 % 1009,0 hPa 0,0 l/m 0 min 0 min 0 W/m 6,4 km/h (2 Bft) 97,83 %
18.03.2023 00:24 11,8 C 10,6 C 6,7 C 82 % 1009,0 hPa 0,0 l/m 0 min 0 min 0 W/m 6,4 km/h (2 Bft) 95,74 %
18.03.2023 00:26 11,8 C 10,6 C 6,7 C 82 % 1009,0 hPa 0,0 l/m 0 min 0 min 0 W/m 6,4 km/h (2 Bft) 96,36 %
18.03.2023 00:28 11,8 C 10,6 C 6,7 C 82 % 1009,0 hPa 0,0 l/m 0 min 0 min 0 W/m 12,9 km/h (3 Bft) 100,00 %
18.03.2023 00:30 11,7 C 10,6 C 6,7 C 82 % 1008,9 hPa 0,0 l/m 0 min 0 min 0 W/m 6,4 km/h (2 Bft) 97,87 %
18.03.2023 00:32 11,7 C 10,6 C 6,7 C 82 % 1008,9 hPa 0,0 l/m 0 min 0 min 0 W/m 6,4 km/h (2 Bft) 100,00 %
18.03.2023 00:34 11,7 C 10,6 C 6,7 C 82 % 1008,8 hPa 0,0 l/m 0 min 0 min 0 W/m 6,4 km/h (2 Bft) 100,00 %
18.03.2023 00:36 11,6 C 10,6 C 6,7 C 82 % 1008,9 hPa 0,0 l/m 0 min 0 min 0 W/m 9,7 km/h (2 Bft) 97,92 %
18.03.2023 00:38 11,6 C 10,6 C 6,7 C 82 % 1008,9 hPa 0,0 l/m 0 min 0 min 0 W/m 12,9 km/h (3 Bft) 100,00 %
18.03.2023 00:40 11,6 C 10,6 C 6,7 C 82 % 1009,0 hPa 0,0 l/m 0 min 0 min 0 W/m 12,9 km/h (3 Bft) 100,00 %
18.03.2023 00:42 11,6 C 10,6 C 6,7 C 83 % 1009,0 hPa 0,0 l/m 0 min 0 min 0 W/m 12,9 km/h (3 Bft) 97,87 %
18.03.2023 00:44 11,5 C 10,6 C 6,7 C 83 % 1009,1 hPa 0,0 l/m 0 min 0 min 0 W/m 6,4 km/h (2 Bft) 100,00 %
18.03.2023 00:46 11,5 C 10,6 C 6,7 C 83 % 1009,1 hPa 0,0 l/m 0 min 0 min 0 W/m 6,4 km/h (2 Bft) 100,00 %
18.03.2023 00:48 11,4 C 10,6 C 6,7 C 83 % 1009,0 hPa 0,0 l/m 0 min 0 min 0 W/m 6,4 km/h (2 Bft) 96,00 %
18.03.2023 00:50 11,4 C 10,6 C 6,7 C 83 % 1009,0 hPa 0,0 l/m 0 min 0 min 0 W/m 6,4 km/h (2 Bft) 100,00 %
18.03.2023 00:52 11,4 C 10,6 C 6,7 C 83 % 1009,0 hPa 0,0 l/m 0 min 0 min 0 W/m 6,4 km/h (2 Bft) 95,74 %
18.03.2023 00:54 11,4 C 10,6 C 6,7 C 83 % 1009,0 hPa 0,0 l/m 0 min 0 min 0 W/m 6,4 km/h (2 Bft) 95,74 %
18.03.2023 00:56 11,4 C 10,6 C 6,7 C 83 % 1009,0 hPa 0,0 l/m 0 min 0 min 0 W/m 6,4 km/h (2 Bft) 97,87 %
18.03.2023 00:58 11,3 C 10,6 C 6,7 C 83 % 1008,9 hPa 0,0 l/m 0 min 0 min 0 W/m 16,1 km/h (3 Bft) 97,87 %
18.03.2023 01:00 11,3 C 10,6 C 6,7 C 83 % 1008,9 hPa 0,0 l/m 0 min 0 min 0 W/m 12,9 km/h (3 Bft) 97,87 %
18.03.2023 01:02 11,3 C 10,6 C 6,7 C 83 % 1008,9 hPa 0,0 l/m 0 min 0 min 0 W/m 6,4 km/h (2 Bft) 95,65 %
18.03.2023 01:04 11,3 C 10,0 C 6,7 C 83 % 1008,9 hPa 0,0 l/m 0 min 0 min 0 W/m 12,9 km/h (3 Bft) 93,62 %
18.03.2023 01:06 11,3 C 10,0 C 6,7 C 83 % 1009,0 hPa 0,0 l/m 0 min 0 min 0 W/m 6,4 km/h (2 Bft) 98,31 %
18.03.2023 01:08 11,2 C 10,0 C 6,7 C 83 % 1009,0 hPa 0,0 l/m 0 min 0 min 0 W/m 6,4 km/h (2 Bft) 97,14 %
18.03.2023 01:10 11,2 C 10,0 C 6,7 C 83 % 1009,1 hPa 0,0 l/m 0 min 0 min 0 W/m 6,4 km/h (2 Bft) 93,62 %
18.03.2023 01:12 11,2 C 10,0 C 6,7 C 84 % 1009,1 hPa 0,0 l/m 0 min 0 min 0 W/m 6,4 km/h (2 Bft) 95,74 %
18.03.2023 01:14 11,2 C 10,0 C 6,7 C 84 % 1009,1 hPa 0,0 l/m 0 min 0 min 0 W/m 6,4 km/h (2 Bft) 93,62 %
18.03.2023 01:16 11,2 C 10,0 C 6,7 C 83 % 1009,1 hPa 0,0 l/m 0 min 0 min 0 W/m 6,4 km/h (2 Bft) 91,30 %
18.03.2023 01:18 11,1 C 10,0 C 6,7 C 84 % 1009,2 hPa 0,0 l/m 0 min 0 min 0 W/m 6,4 km/h (2 Bft) 93,62 %
18.03.2023 01:20 11,1 C 10,0 C 6,7 C 84 % 1009,1 hPa 0,0 l/m 0 min 0 min 0 W/m 9,7 km/h (2 Bft) 97,87 %
18.03.2023 01:22 11,1 C 10,0 C 6,7 C 84 % 1009,2 hPa 0,0 l/m 0 min 0 min 0 W/m 6,4 km/h (2 Bft) 95,74 %
18.03.2023 01:24 11,1 C 10,0 C 6,7 C 84 % 1009,2 hPa 0,0 l/m 0 min 0 min 0 W/m 12,9 km/h (3 Bft) 97,87 %
18.03.2023 01:26 11,1 C 10,0 C 6,7 C 84 % 1009,1 hPa 0,0 l/m 0 min 0 min 0 W/m 9,7 km/h (2 Bft) 97,87 %
18.03.2023 01:28 11,0 C 10,0 C 6,7 C 84 % 1009,1 hPa 0,0 l/m 0 min 0 min 0 W/m 6,4 km/h (2 Bft) 97,87 %
18.03.2023 01:30 11,0 C 10,0 C 6,7 C 84 % 1009,0 hPa 0,0 l/m 0 min 0 min 0 W/m 12,9 km/h (3 Bft) 97,83 %
18.03.2023 01:32 11,0 C 10,0 C 6,7 C 84 % 1009,0 hPa 0,0 l/m 0 min 0 min 0 W/m 6,4 km/h (2 Bft) 91,49 %
18.03.2023 01:34 10,9 C 10,0 C 6,7 C 84 % 1009,0 hPa 0,0 l/m 0 min 0 min 0 W/m 6,4 km/h (2 Bft) 97,87 %
18.03.2023 01:36 10,9 C 10,0 C 6,7 C 84 % 1009,1 hPa 0,0 l/m 0 min 0 min 0 W/m 6,4 km/h (2 Bft) 97,87 %
18.03.2023 01:38 10,9 C 10,0 C 6,7 C 84 % 1009,0 hPa 0,0 l/m 0 min 0 min 0 W/m 6,4 km/h (2 Bft) 97,87 %
18.03.2023 01:40 10,9 C 10,0 C 6,7 C 84 % 1009,0 hPa 0,0 l/m 0 min 0 min 0 W/m 6,4 km/h (2 Bft) 97,87 %
18.03.2023 01:42 10,9 C 10,0 C 6,7 C 84 % 1009,1 hPa 0,0 l/m 0 min 0 min 0 W/m 6,4 km/h (2 Bft) 97,87 %
18.03.2023 01:44 10,9 C 10,0 C 6,7 C 84 % 1009,0 hPa 0,0 l/m 0 min 0 min 0 W/m 6,4 km/h (2 Bft) 95,65 %
18.03.2023 01:46 10,9 C 10,0 C 6,7 C 85 % 1009,0 hPa 0,0 l/m 0 min 0 min 0 W/m 6,4 km/h (2 Bft) 93,62 %
18.03.2023 01:48 10,9 C 10,0 C 6,7 C 85 % 1009,0 hPa 0,0 l/m 0 min 0 min 0 W/m 6,4 km/h (2 Bft) 97,87 %
18.03.2023 01:50 10,8 C 10,0 C 6,1 C 85 % 1009,0 hPa 0,0 l/m 0 min 0 min 0 W/m 9,7 km/h (2 Bft) 97,87 %
18.03.2023 01:52 10,8 C 10,0 C 6,1 C 85 % 1009,0 hPa 0,0 l/m 0 min 0 min 0 W/m 9,7 km/h (2 Bft) 100,00 %
18.03.2023 01:54 10,8 C 10,0 C 6,1 C 85 % 1009,0 hPa 0,0 l/m 0 min 0 min 0 W/m 12,9 km/h (3 Bft) 100,00 %
18.03.2023 01:56 10,8 C 10,0 C 6,1 C 85 % 1008,9 hPa 0,0 l/m 0 min 0 min 0 W/m 6,4 km/h (2 Bft) 97,83 %
18.03.2023 01:58 10,8 C 10,0 C 6,1 C 85 % 1009,0 hPa 0,0 l/m 0 min 0 min 0 W/m 9,7 km/h (2 Bft) 100,00 %
18.03.2023 02:00 10,8 C 10,0 C 6,1 C 85 % 1009,0 hPa 0,0 l/m 0 min 0 min 0 W/m 6,4 km/h (2 Bft) 100,00 %
18.03.2023 02:02 10,8 C 10,0 C 6,1 C 85 % 1009,0 hPa 0,0 l/m 0 min 0 min 0 W/m 6,4 km/h (2 Bft) 100,00 %
18.03.2023 02:04 10,8 C 10,0 C 6,1 C 85 % 1009,0 hPa 0,0 l/m 0 min 0 min 0 W/m 6,4 km/h (2 Bft) 100,00 %
18.03.2023 02:06 10,7 C 10,0 C 6,1 C 85 % 1009,0 hPa 0,0 l/m 0 min 0 min 0 W/m 6,4 km/h (2 Bft) 98,08 %
18.03.2023 02:08 10,7 C 10,0 C 6,1 C 85 % 1009,0 hPa 0,0 l/m 0 min 2 min 0 W/m 9,7 km/h (2 Bft) 100,00 %
18.03.2023 02:10 10,7 C 10,0 C 6,1 C 85 % 1009,1 hPa 0,0 l/m 0 min 2 min 0 W/m 6,4 km/h (2 Bft) 100,00 %
18.03.2023 02:14 10,7 C 10,0 C 5,6 C 86 % 1009,3 hPa 0,0 l/m 0 min 4 min 0 W/m 6,4 km/h (2 Bft) 100,00 %
18.03.2023 02:16 10,7 C 10,0 C 5,6 C 86 % 1009,2 hPa 0,2 l/m 0 min 2 min 0 W/m 9,7 km/h (2 Bft) 100,00 %
18.03.2023 02:21 10,7 C 9,4 C 5,6 C 87 % 1009,2 hPa 0,0 l/m 0 min 0 min 0 W/m 6,4 km/h (2 Bft) 100,00 %
18.03.2023 02:22 10,7 C 9,4 C 5,6 C 87 % 1009,2 hPa 0,0 l/m 0 min 0 min 0 W/m 3,2 km/h (1 Bft) 100,00 %
18.03.2023 02:24 10,7 C 9,4 C 5,6 C 87 % 1009,2 hPa 0,0 l/m 0 min 0 min 0 W/m 3,2 km/h (1 Bft) 97,92 %
18.03.2023 02:26 10,7 C 9,4 C 5,6 C 87 % 1009,2 hPa 0,0 l/m 0 min 0 min 0 W/m 6,4 km/h (2 Bft) 93,62 %
18.03.2023 02:28 10,7 C 9,4 C 5,6 C 88 % 1009,2 hPa 0,0 l/m 0 min 0 min 0 W/m 3,2 km/h (1 Bft) 97,87 %
18.03.2023 02:30 10,7 C 9,4 C 5,6 C 88 % 1009,3 hPa 0,0 l/m 0 min 0 min 0 W/m 6,4 km/h (2 Bft) 97,83 %
18.03.2023 02:32 10,7 C 9,4 C 5,6 C 88 % 1009,3 hPa 0,0 l/m 0 min 0 min 0 W/m 6,4 km/h (2 Bft) 97,87 %
18.03.2023 02:34 10,7 C 9,4 C 5,6 C 88 % 1009,2 hPa 0,0 l/m 0 min 0 min 0 W/m 6,4 km/h (2 Bft) 97,87 %
18.03.2023 02:36 10,7 C 9,4 C 5,6 C 88 % 1009,2 hPa 0,0 l/m 0 min 0 min 0 W/m 3,2 km/h (1 Bft) 95,74 %
18.03.2023 02:38 10,7 C 9,4 C 5,6 C 88 % 1009,2 hPa 0,0 l/m 0 min 0 min 0 W/m 0,0 km/h (0 Bft) 95,74 %
18.03.2023 02:40 10,7 C 9,4 C 5,6 C 88 % 1009,2 hPa 0,0 l/m 0 min 0 min 0 W/m 3,2 km/h (1 Bft) 96,00 %
18.03.2023 02:42 10,7 C 9,4 C 5,6 C 88 % 1009,2 hPa 0,0 l/m 0 min 0 min 0 W/m 3,2 km/h (1 Bft) 93,75 %
18.03.2023 02:44 10,6 C 9,4 C 5,6 C 88 % 1009,1 hPa 0,0 l/m 0 min 0 min 0 W/m 3,2 km/h (1 Bft) 95,74 %
18.03.2023 02:46 10,6 C 9,4 C 5,6 C 89 % 1009,0 hPa 0,0 l/m 0 min 0 min 0 W/m 3,2 km/h (1 Bft) 95,74 %
18.03.2023 02:48 10,6 C 9,4 C 5,6 C 89 % 1009,0 hPa 0,0 l/m 0 min 0 min 0 W/m 3,2 km/h (1 Bft) 95,74 %
18.03.2023 02:50 10,6 C 9,4 C 5,6 C 89 % 1008,9 hPa 0,0 l/m 0 min 0 min 0 W/m 6,4 km/h (2 Bft) 95,65 %
18.03.2023 02:52 10,6 C 9,4 C 5,6 C 89 % 1008,9 hPa 0,0 l/m 0 min 0 min 0 W/m 6,4 km/h (2 Bft) 95,74 %
18.03.2023 02:54 10,6 C 9,4 C 5,0 C 89 % 1009,0 hPa 0,0 l/m 0 min 0 min 0 W/m 6,4 km/h (2 Bft) 95,74 %
18.03.2023 02:56 10,6 C 9,4 C 5,6 C 89 % 1009,0 hPa 0,0 l/m 0 min 0 min 0 W/m 3,2 km/h (1 Bft) 95,74 %
18.03.2023 02:58 10,6 C 9,4 C 5,6 C 89 % 1009,0 hPa 0,0 l/m 0 min 0 min 0 W/m 0,0 km/h (0 Bft) 93,62 %
18.03.2023 03:00 10,5 C 9,4 C 5,0 C 89 % 1009,0 hPa 0,0 l/m 0 min 0 min 0 W/m 3,2 km/h (1 Bft) 91,49 %
18.03.2023 03:02 10,5 C 9,4 C 5,0 C 89 % 1009,0 hPa 0,0 l/m 0 min 0 min 0 W/m 3,2 km/h (1 Bft) 95,74 %
18.03.2023 03:04 10,5 C 9,4 C 5,0 C 89 % 1009,0 hPa 0,0 l/m 0 min 0 min 0 W/m 3,2 km/h (1 Bft) 95,92 %
18.03.2023 03:06 10,4 C 9,4 C 5,0 C 89 % 1009,1 hPa 0,0 l/m 0 min 0 min 0 W/m 3,2 km/h (1 Bft) 95,74 %
18.03.2023 03:08 10,4 C 9,4 C 5,0 C 88 % 1009,0 hPa 0,0 l/m 0 min 0 min 0 W/m 6,4 km/h (2 Bft) 97,87 %
18.03.2023 03:10 10,4 C 9,4 C 5,0 C 88 % 1009,1 hPa 0,0 l/m 0 min 0 min 0 W/m 9,7 km/h (2 Bft) 97,87 %
18.03.2023 03:12 10,4 C 9,4 C 5,0 C 88 % 1009,1 hPa 0,0 l/m 0 min 0 min 0 W/m 6,4 km/h (2 Bft) 97,87 %
18.03.2023 03:14 10,3 C 9,4 C 5,0 C 88 % 1009,1 hPa 0,0 l/m 0 min 0 min 0 W/m 3,2 km/h (1 Bft) 97,87 %
18.03.2023 03:16 10,3 C 9,4 C 5,6 C 88 % 1009,0 hPa 0,0 l/m 0 min 0 min 0 W/m 6,4 km/h (2 Bft) 95,65 %
18.03.2023 03:18 10,3 C 8,9 C 5,6 C 88 % 1009,0 hPa 0,0 l/m 0 min 0 min 0 W/m 6,4 km/h (2 Bft) 100,00 %
18.03.2023 03:20 10,2 C 8,9 C 5,6 C 88 % 1009,0 hPa 0,0 l/m 0 min 0 min 0 W/m 3,2 km/h (1 Bft) 97,87 %
18.03.2023 03:22 10,2 C 8,9 C 5,6 C 88 % 1009,0 hPa 0,0 l/m 0 min 0 min 0 W/m 3,2 km/h (1 Bft) 97,83 %
18.03.2023 03:24 10,2 C 8,9 C 5,0 C 89 % 1009,0 hPa 0,0 l/m 0 min 0 min 0 W/m 6,4 km/h (2 Bft) 100,00 %
18.03.2023 03:26 10,2 C 8,9 C 5,0 C 89 % 1009,0 hPa 0,0 l/m 0 min 0 min 0 W/m 3,2 km/h (1 Bft) 100,00 %
18.03.2023 03:28 10,1 C 8,9 C 5,0 C 89 % 1009,1 hPa 0,0 l/m 0 min 0 min 0 W/m 3,2 km/h (1 Bft) 97,87 %
18.03.2023 03:30 10,1 C 8,9 C 5,0 C 89 % 1009,0 hPa 0,0 l/m 0 min 0 min 0 W/m 0,0 km/h (0 Bft) 97,87 %
18.03.2023 03:32 10,1 C 8,9 C 5,0 C 89 % 1009,0 hPa 0,0 l/m 0 min 0 min 0 W/m 3,2 km/h (1 Bft) 98,15 %
18.03.2023 03:34 10,1 C 8,9 C 5,0 C 89 % 1009,0 hPa 0,0 l/m 0 min 0 min 0 W/m 3,2 km/h (1 Bft) 97,87 %
18.03.2023 03:36 10,1 C 8,3 C 5,0 C 89 % 1009,0 hPa 0,0 l/m 0 min 0 min 0 W/m 3,2 km/h (1 Bft) 95,92 %
18.03.2023 03:38 10,0 C 8,3 C 5,0 C 88 % 1009,0 hPa 0,0 l/m 0 min 0 min 0 W/m 0,0 km/h (0 Bft) 95,74 %
18.03.2023 03:40 10,0 C 8,3 C 4,4 C 88 % 1009,0 hPa 0,0 l/m 0 min 0 min 0 W/m 0,0 km/h (0 Bft) 97,87 %
18.03.2023 03:42 9,9 C 8,3 C 4,4 C 89 % 1009,0 hPa 0,0 l/m 0 min 0 min 0 W/m 0,0 km/h (0 Bft) 97,87 %
18.03.2023 03:44 9,9 C 8,3 C 4,4 C 88 % 1009,1 hPa 0,0 l/m 0 min 0 min 0 W/m 0,0 km/h (0 Bft) 95,74 %
18.03.2023 03:46 9,9 C 7,8 C 4,4 C 88 % 1009,0 hPa 0,0 l/m 0 min 0 min 0 W/m 0,0 km/h (0 Bft) 97,87 %
18.03.2023 03:48 9,9 C 7,8 C 4,4 C 88 % 1009,1 hPa 0,0 l/m 0 min 0 min 0 W/m 0,0 km/h (0 Bft) 97,83 %
18.03.2023 03:50 9,8 C 7,8 C 3,9 C 88 % 1009,1 hPa 0,0 l/m 0 min 0 min 0 W/m 0,0 km/h (0 Bft) 97,87 %
18.03.2023 03:52 9,8 C 7,8 C 3,9 C 88 % 1009,0 hPa 0,0 l/m 0 min 0 min 0 W/m 0,0 km/h (0 Bft) 97,87 %
18.03.2023 03:54 9,8 C 7,8 C 3,9 C 88 % 1009,0 hPa 0,0 l/m 0 min 0 min 0 W/m 0,0 km/h (0 Bft) 97,87 %
18.03.2023 03:56 9,7 C 7,8 C 4,4 C 89 % 1009,1 hPa 0,0 l/m 0 min 0 min 0 W/m 0,0 km/h (0 Bft) 95,74 %
18.03.2023 03:58 9,7 C 7,8 C 4,4 C 89 % 1009,1 hPa 0,0 l/m 0 min 0 min 0 W/m 0,0 km/h (0 Bft) 97,92 %
18.03.2023 04:00 9,6 C 7,8 C 4,4 C 89 % 1009,1 hPa 0,0 l/m 0 min 0 min 0 W/m 0,0 km/h (0 Bft) 97,87 %
18.03.2023 04:02 9,6 C 7,8 C 4,4 C 89 % 1009,0 hPa 0,0 l/m 0 min 0 min 0 W/m 0,0 km/h (0 Bft) 95,74 %
18.03.2023 04:04 9,6 C 7,8 C 4,4 C 89 % 1009,0 hPa 0,0 l/m 0 min 0 min 0 W/m 3,2 km/h (1 Bft) 97,83 %
18.03.2023 04:06 9,5 C 7,8 C 4,4 C 89 % 1009,1 hPa 0,0 l/m 0 min 0 min 0 W/m 3,2 km/h (1 Bft) 97,87 %
18.03.2023 04:08 9,5 C 7,8 C 4,4 C 89 % 1009,0 hPa 0,0 l/m 0 min 0 min 0 W/m 3,2 km/h (1 Bft) 97,22 %
18.03.2023 04:10 9,4 C 7,8 C 4,4 C 89 % 1009,1 hPa 0,0 l/m 0 min 0 min 0 W/m 3,2 km/h (1 Bft) 97,87 %
18.03.2023 04:12 9,4 C 7,8 C 4,4 C 89 % 1009,1 hPa 0,0 l/m 0 min 0 min 0 W/m 6,4 km/h (2 Bft) 100,00 %
18.03.2023 04:14 9,4 C 7,8 C 4,4 C 89 % 1009,1 hPa 0,0 l/m 0 min 0 min 0 W/m 0,0 km/h (0 Bft) 100,00 %
18.03.2023 04:16 9,3 C 7,8 C 4,4 C 90 % 1009,2 hPa 0,0 l/m 0 min 0 min 0 W/m 0,0 km/h (0 Bft) 100,00 %
18.03.2023 04:18 9,3 C 7,8 C 4,4 C 90 % 1009,2 hPa 0,0 l/m 0 min 0 min 0 W/m 0,0 km/h (0 Bft) 100,00 %
18.03.2023 04:20 9,3 C 7,8 C 4,4 C 90 % 1009,3 hPa 0,0 l/m 0 min 0 min 0 W/m 0,0 km/h (0 Bft) 97,87 %
18.03.2023 04:22 9,3 C 7,8 C 4,4 C 90 % 1009,3 hPa 0,0 l/m 0 min 0 min 0 W/m 0,0 km/h (0 Bft) 100,00 %
18.03.2023 04:24 9,3 C 7,8 C 4,4 C 90 % 1009,3 hPa 0,0 l/m 0 min 0 min 0 W/m 0,0 km/h (0 Bft) 97,87 %
18.03.2023 04:26 9,2 C 7,8 C 4,4 C 90 % 1009,2 hPa 0,0 l/m 0 min 0 min 0 W/m 0,0 km/h (0 Bft) 97,87 %
18.03.2023 04:28 9,2 C 7,8 C 4,4 C 90 % 1009,2 hPa 0,0 l/m 0 min 0 min 0 W/m 0,0 km/h (0 Bft) 97,83 %
18.03.2023 04:30 9,2 C 7,8 C 4,4 C 90 % 1009,2 hPa 0,0 l/m 0 min 0 min 0 W/m 0,0 km/h (0 Bft) 97,87 %
18.03.2023 04:32 9,2 C 7,8 C 4,4 C 90 % 1009,2 hPa 0,0 l/m 0 min 0 min 0 W/m 0,0 km/h (0 Bft) 97,87 %
18.03.2023 04:34 9,1 C 7,8 C 4,4 C 90 % 1009,2 hPa 0,0 l/m 0 min 0 min 0 W/m 0,0 km/h (0 Bft) 95,74 %
18.03.2023 04:36 9,1 C 7,8 C 4,4 C 90 % 1009,3 hPa 0,0 l/m 0 min 0 min 0 W/m 0,0 km/h (0 Bft) 97,87 %
18.03.2023 04:38 9,1 C 7,8 C 4,4 C 90 % 1009,3 hPa 0,0 l/m 0 min 0 min 0 W/m 0,0 km/h (0 Bft) 95,74 %
18.03.2023 04:40 9,1 C 7,8 C 4,4 C 90 % 1009,4 hPa 0,0 l/m 0 min 0 min 0 W/m 0,0 km/h (0 Bft) 97,83 %
18.03.2023 04:42 9,1 C 7,8 C 4,4 C 90 % 1009,4 hPa 0,0 l/m 0 min 0 min 0 W/m 3,2 km/h (1 Bft) 97,87 %
18.03.2023 04:44 9,1 C 7,8 C 4,4 C 91 % 1009,3 hPa 0,0 l/m 0 min 0 min 0 W/m 3,2 km/h (1 Bft) 95,74 %
18.03.2023 04:46 9,1 C 7,8 C 4,4 C 91 % 1009,4 hPa 0,0 l/m 0 min 0 min 0 W/m 3,2 km/h (1 Bft) 95,74 %
18.03.2023 04:48 9,1 C 8,3 C 4,4 C 91 % 1009,4 hPa 0,0 l/m 0 min 0 min 0 W/m 6,4 km/h (2 Bft) 97,87 %
18.03.2023 04:50 9,1 C 8,3 C 4,4 C 91 % 1009,3 hPa 0,0 l/m 0 min 0 min 0 W/m 6,4 km/h (2 Bft) 95,74 %
18.03.2023 04:52 9,1 C 8,3 C 4,4 C 91 % 1009,4 hPa 0,0 l/m 0 min 0 min 0 W/m 3,2 km/h (1 Bft) 93,62 %
18.03.2023 04:54 9,0 C 8,3 C 5,0 C 91 % 1009,4 hPa 0,0 l/m 0 min 0 min 0 W/m 6,4 km/h (2 Bft) 100,00 %
18.03.2023 04:56 9,0 C 8,3 C 5,0 C 91 % 1009,4 hPa 0,0 l/m 0 min 0 min 0 W/m 6,4 km/h (2 Bft) 100,00 %
18.03.2023 04:58 9,0 C 8,3 C 5,0 C 91 % 1009,4 hPa 0,0 l/m 0 min 0 min 0 W/m 6,4 km/h (2 Bft) 97,87 %
18.03.2023 05:00 9,0 C 8,3 C 5,0 C 91 % 1009,5 hPa 0,0 l/m 0 min 0 min 0 W/m 6,4 km/h (2 Bft) 100,00 %
18.03.2023 05:02 9,0 C 8,3 C 5,0 C 91 % 1009,5 hPa 0,0 l/m 0 min 0 min 0 W/m 3,2 km/h (1 Bft) 100,00 %
18.03.2023 05:04 9,0 C 8,3 C 5,0 C 91 % 1009,6 hPa 0,0 l/m 0 min 0 min 0 W/m 3,2 km/h (1 Bft) 98,00 %
18.03.2023 05:06 9,0 C 8,3 C 5,0 C 91 % 1009,6 hPa 0,0 l/m 0 min 0 min 0 W/m 3,2 km/h (1 Bft) 97,87 %
18.03.2023 05:08 9,0 C 8,3 C 5,0 C 91 % 1009,7 hPa 0,0 l/m 0 min 0 min 0 W/m 3,2 km/h (1 Bft) 100,00 %
18.03.2023 05:10 9,0 C 8,3 C 5,0 C 91 % 1009,7 hPa 0,0 l/m 0 min 0 min 0 W/m 3,2 km/h (1 Bft) 100,00 %
18.03.2023 05:12 9,0 C 8,3 C 5,0 C 92 % 1009,7 hPa 0,0 l/m 0 min 0 min 0 W/m 3,2 km/h (1 Bft) 100,00 %
18.03.2023 05:14 9,0 C 8,3 C 5,0 C 92 % 1009,6 hPa 0,0 l/m 0 min 0 min 0 W/m 3,2 km/h (1 Bft) 100,00 %
18.03.2023 05:16 9,0 C 8,3 C 5,0 C 92 % 1009,7 hPa 0,0 l/m 0 min 0 min 0 W/m 6,4 km/h (2 Bft) 100,00 %
18.03.2023 05:18 9,1 C 8,3 C 5,0 C 92 % 1009,7 hPa 0,0 l/m 0 min 0 min 0 W/m 3,2 km/h (1 Bft) 100,00 %
18.03.2023 05:20 9,1 C 8,3 C 5,0 C 92 % 1009,7 hPa 0,0 l/m 0 min 0 min 0 W/m 6,4 km/h (2 Bft) 100,00 %
18.03.2023 05:22 9,1 C 8,3 C 5,0 C 92 % 1009,7 hPa 0,0 l/m 0 min 0 min 0 W/m 3,2 km/h (1 Bft) 100,00 %
18.03.2023 05:24 9,1 C 8,3 C 5,0 C 92 % 1009,7 hPa 0,0 l/m 0 min 0 min 0 W/m 3,2 km/h (1 Bft) 100,00 %
18.03.2023 05:26 9,1 C 8,3 C 5,0 C 92 % 1009,8 hPa 0,0 l/m 0 min 0 min 0 W/m 6,4 km/h (2 Bft) 97,87 %
18.03.2023 05:28 9,1 C 8,3 C 5,0 C 92 % 1009,8 hPa 0,0 l/m 0 min 0 min 0 W/m 3,2 km/h (1 Bft) 100,00 %
18.03.2023 05:30 9,1 C 8,3 C 5,0 C 92 % 1009,9 hPa 0,0 l/m 0 min 0 min 0 W/m 3,2 km/h (1 Bft) 97,87 %
18.03.2023 05:32 9,1 C 8,9 C 5,0 C 92 % 1009,8 hPa 0,0 l/m 0 min 0 min 0 W/m 6,4 km/h (2 Bft) 100,00 %
18.03.2023 05:34 9,1 C 8,9 C 5,0 C 92 % 1009,8 hPa 0,0 l/m 0 min 0 min 0 W/m 3,2 km/h (1 Bft) 100,00 %
18.03.2023 05:36 9,2 C 8,9 C 5,0 C 92 % 1009,9 hPa 0,0 l/m 0 min 0 min 0 W/m 3,2 km/h (1 Bft) 100,00 %
18.03.2023 05:38 9,2 C 8,9 C 5,0 C 92 % 1009,8 hPa 0,0 l/m 0 min 0 min 0 W/m 3,2 km/h (1 Bft) 100,00 %
18.03.2023 05:40 9,2 C 8,9 C 5,0 C 92 % 1009,8 hPa 0,0 l/m 0 min 0 min 0 W/m 3,2 km/h (1 Bft) 98,11 %
18.03.2023 05:42 9,2 C 8,9 C 5,0 C 92 % 1009,8 hPa 0,0 l/m 0 min 0 min 0 W/m 3,2 km/h (1 Bft) 100,00 %
18.03.2023 05:44 9,2 C 8,9 C 5,0 C 92 % 1009,8 hPa 0,0 l/m 0 min 0 min 0 W/m 6,4 km/h (2 Bft) 100,00 %
18.03.2023 05:46 9,2 C 8,9 C 5,0 C 92 % 1009,9 hPa 0,0 l/m 0 min 0 min 0 W/m 3,2 km/h (1 Bft) 98,00 %
18.03.2023 05:48 9,2 C 8,9 C 5,0 C 92 % 1009,9 hPa 0,0 l/m 0 min 0 min 0 W/m 3,2 km/h (1 Bft) 95,74 %
18.03.2023 05:50 9,2 C 8,9 C 5,0 C 92 % 1009,9 hPa 0,0 l/m 0 min 0 min 0 W/m 6,4 km/h (2 Bft) 95,65 %
18.03.2023 05:52 9,2 C 8,9 C 5,0 C 92 % 1009,9 hPa 0,0 l/m 0 min 0 min 0 W/m 3,2 km/h (1 Bft) 93,62 %
18.03.2023 05:54 9,2 C 8,9 C 5,0 C 92 % 1010,0 hPa 0,0 l/m 0 min 0 min 0 W/m 3,2 km/h (1 Bft) 95,74 %
18.03.2023 05:56 9,2 C 8,9 C 5,0 C 93 % 1009,9 hPa 0,0 l/m 0 min 0 min 0 W/m 3,2 km/h (1 Bft) 93,62 %
18.03.2023 05:58 9,3 C 8,9 C 5,0 C 93 % 1010,0 hPa 0,0 l/m 0 min 0 min 0 W/m 6,4 km/h (2 Bft) 93,62 %
18.03.2023 06:00 9,3 C 8,9 C 5,0 C 93 % 1010,0 hPa 0,0 l/m 0 min 0 min 0 W/m 6,4 km/h (2 Bft) 95,74 %
18.03.2023 06:02 9,3 C 8,9 C 5,0 C 93 % 1010,0 hPa 0,0 l/m 0 min 0 min 0 W/m 6,4 km/h (2 Bft) 93,48 %
18.03.2023 06:04 9,3 C 8,9 C 5,0 C 93 % 1010,0 hPa 0,0 l/m 0 min 0 min 0 W/m 3,2 km/h (1 Bft) 93,62 %
18.03.2023 06:07 9,3 C 8,9 C 5,0 C 93 % 1010,1 hPa 0,0 l/m 0 min 0 min 0 W/m 3,2 km/h (1 Bft) 94,37 %
18.03.2023 06:08 9,3 C 8,9 C 5,0 C 93 % 1010,1 hPa 0,0 l/m 0 min 0 min 0 W/m 3,2 km/h (1 Bft) 95,65 %
18.03.2023 06:12 9,3 C 8,9 C 5,0 C 93 % 1010,0 hPa 0,0 l/m 0 min 0 min 0 W/m 3,2 km/h (1 Bft) 92,16 %
18.03.2023 06:14 9,3 C 8,9 C 5,0 C 93 % 1010,1 hPa 0,0 l/m 0 min 0 min 0 W/m 3,2 km/h (1 Bft) 90,38 %
18.03.2023 06:16 9,3 C 8,9 C 5,0 C 93 % 1010,0 hPa 0,0 l/m 0 min 0 min 0 W/m 3,2 km/h (1 Bft) 93,62 %
18.03.2023 06:18 9,3 C 8,9 C 5,0 C 93 % 1010,0 hPa 0,0 l/m 0 min 0 min 0 W/m 6,4 km/h (2 Bft) 93,62 %
18.03.2023 06:20 9,3 C 8,3 C 5,0 C 93 % 1010,0 hPa 0,0 l/m 0 min 0 min 0 W/m 3,2 km/h (1 Bft) 95,74 %
18.03.2023 06:22 9,3 C 8,3 C 5,0 C 93 % 1010,0 hPa 0,0 l/m 0 min 0 min 0 W/m 3,2 km/h (1 Bft) 93,62 %
18.03.2023 06:24 9,3 C 8,3 C 5,0 C 93 % 1010,1 hPa 0,0 l/m 0 min 0 min 0 W/m 3,2 km/h (1 Bft) 93,62 %
18.03.2023 06:26 9,3 C 8,3 C 5,0 C 93 % 1010,0 hPa 0,0 l/m 0 min 0 min 0 W/m 0,0 km/h (0 Bft) 95,65 %
18.03.2023 06:28 9,3 C 8,3 C 5,0 C 93 % 1010,1 hPa 0,0 l/m 0 min 0 min 0 W/m 3,2 km/h (1 Bft) 93,62 %
18.03.2023 06:30 9,3 C 8,3 C 5,0 C 93 % 1010,2 hPa 0,0 l/m 0 min 0 min 0 W/m 3,2 km/h (1 Bft) 95,74 %
18.03.2023 06:32 9,3 C 8,3 C 5,0 C 92 % 1010,1 hPa 0,0 l/m 0 min 0 min 0 W/m 3,2 km/h (1 Bft) 95,74 %
18.03.2023 06:34 9,3 C 8,3 C 5,0 C 92 % 1010,1 hPa 0,0 l/m 0 min 0 min 0 W/m 3,2 km/h (1 Bft) 93,62 %
18.03.2023 06:36 9,3 C 8,3 C 5,0 C 92 % 1010,1 hPa 0,0 l/m 0 min 0 min 0 W/m 3,2 km/h (1 Bft) 95,74 %
18.03.2023 06:38 9,2 C 8,3 C 5,0 C 92 % 1010,2 hPa 0,0 l/m 0 min 0 min 0 W/m 6,4 km/h (2 Bft) 93,62 %
18.03.2023 06:40 9,2 C 8,3 C 5,0 C 92 % 1010,2 hPa 0,0 l/m 0 min 0 min 0 W/m 3,2 km/h (1 Bft) 97,83 %
18.03.2023 06:42 9,2 C 8,3 C 5,0 C 92 % 1010,2 hPa 0,0 l/m 0 min 0 min 0 W/m 3,2 km/h (1 Bft) 97,87 %
18.03.2023 06:44 9,2 C 8,3 C 5,0 C 92 % 1010,2 hPa 0,0 l/m 0 min 0 min 0 W/m 3,2 km/h (1 Bft) 100,00 %
18.03.2023 06:46 9,2 C 8,3 C 5,0 C 92 % 1010,2 hPa 0,0 l/m 0 min 0 min 0 W/m 3,2 km/h (1 Bft) 97,87 %
18.03.2023 06:48 9,2 C 8,3 C 5,0 C 92 % 1010,2 hPa 0,0 l/m 0 min 0 min 0 W/m 3,2 km/h (1 Bft) 97,87 %
18.03.2023 06:50 9,2 C 8,3 C 5,0 C 92 % 1010,2 hPa 0,0 l/m 0 min 0 min 5 W/m 3,2 km/h (1 Bft) 100,00 %
18.03.2023 06:52 9,2 C 8,3 C 4,4 C 92 % 1010,2 hPa 0,0 l/m 0 min 0 min 5 W/m 3,2 km/h (1 Bft) 100,00 %
18.03.2023 06:54 9,1 C 7,8 C 4,4 C 92 % 1010,3 hPa 0,0 l/m 0 min 0 min 5 W/m 3,2 km/h (1 Bft) 97,87 %
18.03.2023 06:56 9,1 C 7,8 C 4,4 C 92 % 1010,3 hPa 0,0 l/m 0 min 0 min 7 W/m 3,2 km/h (1 Bft) 97,87 %
18.03.2023 06:58 9,1 C 7,8 C 4,4 C 92 % 1010,3 hPa 0,0 l/m 0 min 0 min 8 W/m 6,4 km/h (2 Bft) 97,87 %
18.03.2023 07:00 9,1 C 7,8 C 4,4 C 92 % 1010,4 hPa 0,0 l/m 0 min 0 min 10 W/m 3,2 km/h (1 Bft) 100,00 %
18.03.2023 07:02 9,1 C 7,8 C 4,4 C 92 % 1010,4 hPa 0,0 l/m 0 min 0 min 12 W/m 3,2 km/h (1 Bft) 97,87 %
18.03.2023 07:04 9,1 C 7,8 C 4,4 C 93 % 1010,4 hPa 0,0 l/m 0 min 0 min 14 W/m 3,2 km/h (1 Bft) 100,00 %
18.03.2023 07:06 9,1 C 8,3 C 4,4 C 93 % 1010,4 hPa 0,0 l/m 0 min 0 min 14 W/m 3,2 km/h (1 Bft) 97,83 %
18.03.2023 07:08 9,1 C 8,3 C 4,4 C 93 % 1010,4 hPa 0,0 l/m 0 min 0 min 14 W/m 3,2 km/h (1 Bft) 97,87 %
18.03.2023 07:10 9,1 C 7,8 C 4,4 C 93 % 1010,4 hPa 0,0 l/m 0 min 0 min 14 W/m 3,2 km/h (1 Bft) 95,74 %
18.03.2023 07:12 9,0 C 7,8 C 4,4 C 93 % 1010,4 hPa 0,0 l/m 0 min 0 min 14 W/m 6,4 km/h (2 Bft) 100,00 %
18.03.2023 07:14 9,0 C 7,8 C 4,4 C 93 % 1010,4 hPa 0,0 l/m 0 min 0 min 12 W/m 3,2 km/h (1 Bft) 100,00 %
18.03.2023 07:16 9,0 C 7,8 C 4,4 C 93 % 1010,5 hPa 0,0 l/m 0 min 0 min 14 W/m 3,2 km/h (1 Bft) 100,00 %
18.03.2023 07:18 8,9 C 7,8 C 4,4 C 93 % 1010,5 hPa 0,0 l/m 0 min 0 min 14 W/m 3,2 km/h (1 Bft) 100,00 %
18.03.2023 07:20 8,9 C 7,8 C 4,4 C 93 % 1010,5 hPa 0,0 l/m 0 min 0 min 15 W/m 3,2 km/h (1 Bft) 100,00 %
18.03.2023 07:22 8,9 C 7,8 C 4,4 C 93 % 1010,5 hPa 0,0 l/m 0 min 0 min 17 W/m 6,4 km/h (2 Bft) 100,00 %
18.03.2023 07:24 8,9 C 7,8 C 4,4 C 93 % 1010,5 hPa 0,0 l/m 0 min 0 min 18 W/m 3,2 km/h (1 Bft) 100,00 %
18.03.2023 07:26 8,9 C 7,8 C 4,4 C 93 % 1010,5 hPa 0,0 l/m 0 min 0 min 19 W/m 3,2 km/h (1 Bft) 97,87 %
18.03.2023 07:28 8,9 C 7,8 C 4,4 C 93 % 1010,5 hPa 0,0 l/m 0 min 0 min 19 W/m 0,0 km/h (0 Bft) 100,00 %
18.03.2023 07:30 8,9 C 7,8 C 4,4 C 93 % 1010,5 hPa 0,0 l/m 0 min 0 min 19 W/m 0,0 km/h (0 Bft) 100,00 %
18.03.2023 07:32 8,9 C 7,8 C 4,4 C 93 % 1010,5 hPa 0,0 l/m 0 min 0 min 21 W/m 3,2 km/h (1 Bft) 100,00 %
18.03.2023 07:34 8,9 C 7,8 C 4,4 C 93 % 1010,5 hPa 0,0 l/m 0 min 0 min 21 W/m 3,2 km/h (1 Bft) 100,00 %
18.03.2023 07:36 8,9 C 7,8 C 4,4 C 93 % 1010,6 hPa 0,0 l/m 0 min 0 min 22 W/m 6,4 km/h (2 Bft) 97,87 %
18.03.2023 07:38 8,9 C 8,3 C 4,4 C 93 % 1010,6 hPa 0,0 l/m 0 min 0 min 23 W/m 3,2 km/h (1 Bft) 100,00 %
18.03.2023 07:40 8,9 C 8,3 C 4,4 C 93 % 1010,6 hPa 0,0 l/m 0 min 0 min 23 W/m 6,4 km/h (2 Bft) 100,00 %
18.03.2023 07:42 8,9 C 8,3 C 4,4 C 93 % 1010,6 hPa 0,0 l/m 0 min 0 min 25 W/m 3,2 km/h (1 Bft) 100,00 %
18.03.2023 07:44 8,9 C 8,3 C 4,4 C 93 % 1010,6 hPa 0,0 l/m 0 min 0 min 25 W/m 6,4 km/h (2 Bft) 100,00 %
18.03.2023 07:46 8,9 C 8,3 C 5,0 C 93 % 1010,6 hPa 0,0 l/m 0 min 0 min 26 W/m 6,4 km/h (2 Bft) 95,74 %
18.03.2023 07:48 8,9 C 8,3 C 5,0 C 93 % 1010,6 hPa 0,0 l/m 0 min 0 min 28 W/m 6,4 km/h (2 Bft) 100,00 %
18.03.2023 07:50 8,9 C 8,3 C 5,0 C 93 % 1010,6 hPa 0,0 l/m 0 min 0 min 31 W/m 6,4 km/h (2 Bft) 100,00 %
18.03.2023 07:52 8,9 C 8,3 C 5,0 C 93 % 1010,6 hPa 0,0 l/m 0 min 0 min 33 W/m 3,2 km/h (1 Bft) 97,87 %
18.03.2023 07:54 8,9 C 8,9 C 5,0 C 93 % 1010,6 hPa 0,0 l/m 0 min 0 min 36 W/m 6,4 km/h (2 Bft) 100,00 %
18.03.2023 07:56 8,9 C 8,9 C 5,0 C 93 % 1010,7 hPa 0,0 l/m 0 min 0 min 38 W/m 3,2 km/h (1 Bft) 95,74 %
18.03.2023 07:58 9,0 C 8,9 C 5,0 C 93 % 1010,7 hPa 0,0 l/m 0 min 0 min 39 W/m 3,2 km/h (1 Bft) 97,87 %
18.03.2023 08:00 9,0 C 8,9 C 5,0 C 93 % 1010,8 hPa 0,0 l/m 0 min 0 min 42 W/m 3,2 km/h (1 Bft) 97,87 %
18.03.2023 08:02 9,1 C 9,4 C 5,0 C 94 % 1010,7 hPa 0,0 l/m 0 min 0 min 49 W/m 6,4 km/h (2 Bft) 97,83 %
18.03.2023 08:04 9,1 C 9,4 C 5,6 C 94 % 1010,7 hPa 0,0 l/m 0 min 0 min 53 W/m 3,2 km/h (1 Bft) 91,49 %
18.03.2023 08:06 9,1 C 9,4 C 5,6 C 94 % 1010,7 hPa 0,0 l/m 0 min 0 min 57 W/m 6,4 km/h (2 Bft) 89,36 %
18.03.2023 08:08 9,2 C 9,4 C 5,6 C 94 % 1010,7 hPa 0,0 l/m 0 min 0 min 62 W/m 6,4 km/h (2 Bft) 89,36 %
18.03.2023 08:10 9,2 C 10,0 C 5,6 C 94 % 1010,7 hPa 0,0 l/m 0 min 0 min 65 W/m 3,2 km/h (1 Bft) 93,62 %
18.03.2023 08:12 9,2 C 10,0 C 5,6 C 94 % 1010,7 hPa 0,0 l/m 0 min 0 min 65 W/m 3,2 km/h (1 Bft) 95,74 %
18.03.2023 08:14 9,3 C 10,0 C 5,6 C 94 % 1010,7 hPa 0,0 l/m 0 min 0 min 67 W/m 6,4 km/h (2 Bft) 93,48 %
18.03.2023 08:16 9,3 C 10,0 C 6,1 C 94 % 1010,7 hPa 0,0 l/m 0 min 0 min 67 W/m 6,4 km/h (2 Bft) 90,00 %
18.03.2023 08:18 9,4 C 10,0 C 6,1 C 94 % 1010,8 hPa 0,0 l/m 0 min 0 min 70 W/m 6,4 km/h (2 Bft) 86,84 %
18.03.2023 08:20 9,4 C 10,0 C 6,1 C 94 % 1010,8 hPa 0,0 l/m 0 min 0 min 70 W/m 6,4 km/h (2 Bft) 76,60 %
18.03.2023 08:22 9,5 C 10,0 C 6,1 C 94 % 1010,8 hPa 0,0 l/m 0 min 0 min 69 W/m 3,2 km/h (1 Bft) 79,25 %
18.03.2023 08:24 9,6 C 10,6 C 6,1 C 94 % 1010,9 hPa 0,0 l/m 0 min 0 min 69 W/m 3,2 km/h (1 Bft) 87,23 %
18.03.2023 08:26 9,6 C 10,6 C 6,1 C 94 % 1010,9 hPa 0,0 l/m 0 min 0 min 70 W/m 6,4 km/h (2 Bft) 91,49 %
18.03.2023 08:28 9,7 C 10,6 C 6,1 C 95 % 1010,9 hPa 0,0 l/m 0 min 0 min 73 W/m 6,4 km/h (2 Bft) 93,48 %
18.03.2023 08:30 9,8 C 10,6 C 6,1 C 95 % 1010,9 hPa 0,0 l/m 0 min 0 min 75 W/m 12,9 km/h (3 Bft) 85,11 %
18.03.2023 08:32 9,8 C 10,6 C 6,7 C 95 % 1010,9 hPa 0,0 l/m 0 min 0 min 75 W/m 6,4 km/h (2 Bft) 87,23 %
18.03.2023 08:34 9,9 C 10,6 C 6,7 C 94 % 1010,9 hPa 0,0 l/m 0 min 0 min 75 W/m 6,4 km/h (2 Bft) 80,85 %
18.03.2023 08:36 10,0 C 10,6 C 6,7 C 94 % 1010,9 hPa 0,0 l/m 0 min 0 min 76 W/m 6,4 km/h (2 Bft) 76,60 %
18.03.2023 08:38 10,1 C 11,1 C 6,7 C 95 % 1010,9 hPa 0,0 l/m 0 min 0 min 79 W/m 3,2 km/h (1 Bft) 80,85 %
18.03.2023 08:40 10,1 C 11,1 C 6,7 C 94 % 1010,9 hPa 0,0 l/m 0 min 0 min 81 W/m 3,2 km/h (1 Bft) 86,96 %
18.03.2023 08:42 10,1 C 11,1 C 6,7 C 94 % 1010,9 hPa 0,0 l/m 0 min 0 min 86 W/m 3,2 km/h (1 Bft) 68,09 %
18.03.2023 08:44 10,2 C 11,1 C 6,7 C 94 % 1011,0 hPa 0,0 l/m 0 min 0 min 94 W/m 6,4 km/h (2 Bft) 82,98 %
18.03.2023 08:46 10,2 C 11,1 C 6,7 C 94 % 1011,0 hPa 0,0 l/m 0 min 0 min 105 W/m 3,2 km/h (1 Bft) 95,74 %
18.03.2023 08:48 10,3 C 11,1 C 6,7 C 94 % 1011,0 hPa 0,0 l/m 0 min 0 min 117 W/m 0,0 km/h (0 Bft) 74,47 %
18.03.2023 08:50 10,3 C 11,7 C 6,7 C 94 % 1011,1 hPa 0,0 l/m 0 min 0 min 121 W/m 16,1 km/h (3 Bft) 42,55 %
18.03.2023 08:52 10,4 C 12,2 C 6,7 C 94 % 1011,0 hPa 0,0 l/m 0 min 0 min 121 W/m 12,9 km/h (3 Bft) 44,68 %
18.03.2023 08:54 10,4 C 13,3 C 7,2 C 94 % 1011,0 hPa 0,0 l/m 2 min 0 min 217 W/m 12,9 km/h (3 Bft) 91,30 %
18.03.2023 08:56 10,5 C 13,9 C 7,2 C 94 % 1011,1 hPa 0,0 l/m 2 min 0 min 263 W/m 6,4 km/h (2 Bft) 89,36 %
18.03.2023 08:58 10,6 C 15,0 C 7,2 C 94 % 1011,0 hPa 0,0 l/m 2 min 0 min 280 W/m 6,4 km/h (2 Bft) 74,47 %
18.03.2023 09:00 10,7 C 16,7 C 7,2 C 94 % 1011,1 hPa 0,0 l/m 2 min 0 min 310 W/m 6,4 km/h (2 Bft) 57,45 %
18.03.2023 09:02 10,8 C 16,7 C 7,8 C 94 % 1011,1 hPa 0,0 l/m 2 min 0 min 287 W/m 6,4 km/h (2 Bft) 76,60 %
18.03.2023 09:04 10,9 C 16,1 C 7,8 C 94 % 1011,1 hPa 0,0 l/m 2 min 0 min 275 W/m 6,4 km/h (2 Bft) 82,98 %
18.03.2023 09:06 11,1 C 16,1 C 7,8 C 94 % 1011,2 hPa 0,0 l/m 2 min 0 min 237 W/m 6,4 km/h (2 Bft) 91,67 %
18.03.2023 09:08 11,2 C 16,1 C 7,8 C 94 % 1011,2 hPa 0,0 l/m 2 min 0 min 254 W/m 6,4 km/h (2 Bft) 86,96 %
18.03.2023 09:10 11,3 C 16,7 C 8,3 C 94 % 1011,2 hPa 0,0 l/m 2 min 0 min 269 W/m 12,9 km/h (3 Bft) 78,72 %
18.03.2023 09:12 11,5 C 17,2 C 8,3 C 93 % 1011,2 hPa 0,0 l/m 2 min 0 min 334 W/m 12,9 km/h (3 Bft) 91,49 %
18.03.2023 09:14 11,6 C 17,2 C 8,3 C 93 % 1011,2 hPa 0,0 l/m 2 min 0 min 299 W/m 12,9 km/h (3 Bft) 89,36 %
18.03.2023 09:16 11,8 C 17,2 C 8,9 C 93 % 1011,3 hPa 0,0 l/m 2 min 0 min 350 W/m 12,9 km/h (3 Bft) 97,87 %
18.03.2023 09:18 11,9 C 17,8 C 8,9 C 92 % 1011,2 hPa 0,0 l/m 2 min 0 min 388 W/m 16,1 km/h (3 Bft) 97,87 %
18.03.2023 09:20 12,1 C 18,3 C 8,9 C 92 % 1011,3 hPa 0,0 l/m 2 min 0 min 334 W/m 16,1 km/h (3 Bft) 89,36 %
18.03.2023 09:22 12,3 C 18,3 C 8,9 C 91 % 1011,3 hPa 0,0 l/m 2 min 0 min 360 W/m 9,7 km/h (2 Bft) 97,83 %
18.03.2023 09:24 12,4 C 18,3 C 8,9 C 90 % 1011,3 hPa 0,0 l/m 2 min 0 min 325 W/m 12,9 km/h (3 Bft) 61,70 %
18.03.2023 09:26 12,6 C 18,3 C 9,4 C 90 % 1011,4 hPa 0,0 l/m 2 min 0 min 272 W/m 16,1 km/h (3 Bft) 89,36 %
18.03.2023 09:28 12,8 C 18,3 C 9,4 C 89 % 1011,3 hPa 0,0 l/m 2 min 0 min 253 W/m 9,7 km/h (2 Bft) 97,87 %
18.03.2023 09:30 12,9 C 18,9 C 9,4 C 88 % 1011,3 hPa 0,0 l/m 2 min 0 min 251 W/m 3,2 km/h (1 Bft) 95,74 %
18.03.2023 09:32 13,1 C 18,9 C 9,4 C 88 % 1011,4 hPa 0,0 l/m 0 min 0 min 199 W/m 3,2 km/h (1 Bft) 72,34 %
18.03.2023 09:34 13,2 C 18,3 C 9,4 C 87 % 1011,3 hPa 0,0 l/m 2 min 0 min 242 W/m 12,9 km/h (3 Bft) 100,00 %
18.03.2023 09:36 13,3 C 18,9 C 9,4 C 86 % 1011,4 hPa 0,0 l/m 2 min 0 min 338 W/m 16,1 km/h (3 Bft) 93,62 %
18.03.2023 09:38 13,5 C 18,3 C 9,4 C 85 % 1011,4 hPa 0,0 l/m 2 min 0 min 347 W/m 12,9 km/h (3 Bft) 95,74 %
18.03.2023 09:40 13,6 C 17,8 C 9,4 C 85 % 1011,4 hPa 0,0 l/m 2 min 0 min 343 W/m 12,9 km/h (3 Bft) 93,62 %
18.03.2023 09:42 13,7 C 18,3 C 9,4 C 84 % 1011,3 hPa 0,0 l/m 2 min 0 min 308 W/m 12,9 km/h (3 Bft) 89,36 %
18.03.2023 09:44 13,8 C 18,3 C 9,4 C 84 % 1011,3 hPa 0,0 l/m 2 min 0 min 292 W/m 9,7 km/h (2 Bft) 91,49 %
18.03.2023 09:46 13,9 C 17,8 C 10,0 C 83 % 1011,4 hPa 0,0 l/m 2 min 0 min 368 W/m 16,1 km/h (3 Bft) 95,74 %
18.03.2023 09:48 14,0 C 18,3 C 10,0 C 83 % 1011,4 hPa 0,0 l/m 2 min 0 min 434 W/m 19,3 km/h (3 Bft) 93,48 %
18.03.2023 09:50 14,1 C 18,9 C 10,0 C 82 % 1011,4 hPa 0,0 l/m 2 min 0 min 278 W/m 19,3 km/h (3 Bft) 91,49 %
18.03.2023 09:52 14,3 C 18,3 C 10,0 C 82 % 1011,4 hPa 0,0 l/m 2 min 0 min 343 W/m 16,1 km/h (3 Bft) 85,11 %
18.03.2023 09:54 14,3 C 18,3 C 10,0 C 81 % 1011,4 hPa 0,0 l/m 2 min 0 min 286 W/m 19,3 km/h (3 Bft) 87,23 %
18.03.2023 09:56 14,3 C 17,8 C 10,0 C 81 % 1011,5 hPa 0,0 l/m 2 min 0 min 247 W/m 12,9 km/h (3 Bft) 97,87 %
18.03.2023 09:58 14,4 C 18,3 C 10,0 C 81 % 1011,4 hPa 0,0 l/m 0 min 0 min 203 W/m 6,4 km/h (2 Bft) 95,74 %
18.03.2023 10:00 14,5 C 17,8 C 10,6 C 80 % 1011,4 hPa 0,0 l/m 2 min 0 min 282 W/m 16,1 km/h (3 Bft) 97,87 %
18.03.2023 10:02 14,6 C 16,7 C 10,6 C 80 % 1011,5 hPa 0,0 l/m 2 min 0 min 319 W/m 12,9 km/h (3 Bft) 97,83 %
18.03.2023 10:04 14,6 C 17,2 C 10,6 C 80 % 1011,5 hPa 0,0 l/m 2 min 0 min 355 W/m 9,7 km/h (2 Bft) 97,87 %
18.03.2023 10:06 14,7 C 17,2 C 11,1 C 80 % 1011,5 hPa 0,0 l/m 2 min 0 min 348 W/m 16,1 km/h (3 Bft) 95,83 %
18.03.2023 10:08 14,8 C 17,8 C 11,1 C 80 % 1011,4 hPa 0,0 l/m 2 min 0 min 511 W/m 9,7 km/h (2 Bft) 97,87 %
18.03.2023 10:10 15,0 C 18,9 C 11,7 C 79 % 1011,5 hPa 0,0 l/m 2 min 0 min 559 W/m 12,9 km/h (3 Bft) 97,87 %
18.03.2023 10:12 15,1 C 19,4 C 12,2 C 79 % 1011,5 hPa 0,0 l/m 2 min 0 min 456 W/m 12,9 km/h (3 Bft) 97,87 %
18.03.2023 10:14 15,2 C 19,4 C 12,2 C 78 % 1011,5 hPa 0,0 l/m 2 min 0 min 314 W/m 3,2 km/h (1 Bft) 95,74 %
18.03.2023 10:16 15,3 C 20,0 C 12,8 C 78 % 1011,5 hPa 0,0 l/m 2 min 0 min 424 W/m 6,4 km/h (2 Bft) 93,48 %
18.03.2023 10:18 15,4 C 20,6 C 13,9 C 78 % 1011,5 hPa 0,0 l/m 2 min 0 min 551 W/m 6,4 km/h (2 Bft) 91,49 %
18.03.2023 10:20 15,6 C 20,0 C 13,9 C 77 % 1011,5 hPa 0,0 l/m 2 min 0 min 464 W/m 16,1 km/h (3 Bft) 95,74 %
18.03.2023 10:22 15,7 C 20,0 C 14,4 C 77 % 1011,5 hPa 0,0 l/m 2 min 0 min 479 W/m 12,9 km/h (3 Bft) 97,87 %
18.03.2023 10:24 15,7 C 20,0 C 13,9 C 76 % 1011,5 hPa 0,0 l/m 2 min 0 min 529 W/m 16,1 km/h (3 Bft) 95,74 %
18.03.2023 10:26 15,8 C 19,4 C 13,3 C 75 % 1011,5 hPa 0,0 l/m 2 min 0 min 455 W/m 19,3 km/h (3 Bft) 95,74 %
18.03.2023 10:28 15,8 C 20,0 C 13,9 C 75 % 1011,5 hPa 0,0 l/m 2 min 0 min 328 W/m 9,7 km/h (2 Bft) 91,49 %
18.03.2023 10:30 15,8 C 20,0 C 13,9 C 75 % 1011,5 hPa 0,0 l/m 0 min 0 min 228 W/m 12,9 km/h (3 Bft) 97,83 %
18.03.2023 10:32 15,8 C 20,0 C 13,9 C 75 % 1011,5 hPa 0,0 l/m 2 min 0 min 290 W/m 19,3 km/h (3 Bft) 100,00 %
18.03.2023 10:34 15,8 C 21,1 C 13,9 C 75 % 1011,5 hPa 0,0 l/m 2 min 0 min 461 W/m 16,1 km/h (3 Bft) 100,00 %
18.03.2023 10:36 15,8 C 21,7 C 15,0 C 75 % 1011,5 hPa 0,0 l/m 2 min 0 min 374 W/m 22,5 km/h (4 Bft) 100,00 %
18.03.2023 10:38 15,8 C 21,7 C 15,0 C 75 % 1011,5 hPa 0,0 l/m 2 min 0 min 422 W/m 22,5 km/h (4 Bft) 100,00 %
18.03.2023 10:40 15,8 C 22,2 C 16,1 C 75 % 1011,5 hPa 0,0 l/m 2 min 0 min 479 W/m 19,3 km/h (3 Bft) 100,00 %
18.03.2023 10:42 15,8 C 23,3 C 17,2 C 75 % 1011,5 hPa 0,0 l/m 2 min 0 min 569 W/m 9,7 km/h (2 Bft) 100,00 %
18.03.2023 10:44 15,8 C 23,3 C 17,2 C 75 % 1011,5 hPa 0,0 l/m 2 min 0 min 576 W/m 12,9 km/h (3 Bft) 100,00 %
18.03.2023 10:46 15,8 C 24,4 C 17,8 C 74 % 1011,4 hPa 0,0 l/m 2 min 0 min 524 W/m 9,7 km/h (2 Bft) 97,87 %
18.03.2023 10:48 15,9 C 23,3 C 17,2 C 74 % 1011,5 hPa 0,0 l/m 2 min 0 min 350 W/m 22,5 km/h (4 Bft) 100,00 %
18.03.2023 10:50 15,9 C 23,9 C 17,8 C 74 % 1011,4 hPa 0,0 l/m 2 min 0 min 465 W/m 12,9 km/h (3 Bft) 100,00 %
18.03.2023 10:52 16,0 C 25,0 C 18,3 C 74 % 1011,4 hPa 0,0 l/m 2 min 0 min 449 W/m 12,9 km/h (3 Bft) 97,87 %
18.03.2023 10:54 16,1 C 25,0 C 18,9 C 74 % 1011,4 hPa 0,0 l/m 2 min 0 min 502 W/m 9,7 km/h (2 Bft) 100,00 %
18.03.2023 10:56 16,2 C 26,1 C 19,4 C 74 % 1011,4 hPa 0,0 l/m 2 min 0 min 602 W/m 6,4 km/h (2 Bft) 100,00 %
18.03.2023 10:58 16,3 C 26,1 C 19,4 C 73 % 1011,4 hPa 0,0 l/m 2 min 0 min 603 W/m 19,3 km/h (3 Bft) 100,00 %
18.03.2023 11:00 16,4 C 26,1 C 19,4 C 73 % 1011,4 hPa 0,0 l/m 2 min 0 min 612 W/m 12,9 km/h (3 Bft) 100,00 %
18.03.2023 11:02 16,6 C 26,7 C 20,0 C 74 % 1011,4 hPa 0,0 l/m 2 min 0 min 611 W/m 12,9 km/h (3 Bft) 97,87 %
18.03.2023 11:04 16,7 C 25,6 C 18,9 C 73 % 1011,4 hPa 0,0 l/m 2 min 0 min 624 W/m 19,3 km/h (3 Bft) 97,87 %
18.03.2023 11:06 16,8 C 26,1 C 18,9 C 73 % 1011,4 hPa 0,0 l/m 2 min 0 min 627 W/m 16,1 km/h (3 Bft) 100,00 %
18.03.2023 11:08 16,8 C 26,1 C 19,4 C 72 % 1011,4 hPa 0,0 l/m 2 min 0 min 627 W/m 12,9 km/h (3 Bft) 100,00 %
18.03.2023 11:10 16,9 C 27,2 C 20,0 C 73 % 1011,3 hPa 0,0 l/m 2 min 0 min 626 W/m 16,1 km/h (3 Bft) 100,00 %
18.03.2023 11:12 17,1 C 26,7 C 20,0 C 72 % 1011,3 hPa 0,0 l/m 2 min 0 min 630 W/m 12,9 km/h (3 Bft) 100,00 %
18.03.2023 11:14 17,2 C 27,2 C 20,0 C 71 % 1011,3 hPa 0,0 l/m 2 min 0 min 636 W/m 9,7 km/h (2 Bft) 97,87 %
18.03.2023 11:16 17,2 C 27,2 C 20,0 C 71 % 1011,4 hPa 0,0 l/m 2 min 0 min 645 W/m 16,1 km/h (3 Bft) 97,87 %
18.03.2023 11:18 17,3 C 27,8 C 20,0 C 71 % 1011,4 hPa 0,0 l/m 2 min 0 min 638 W/m 9,7 km/h (2 Bft) 97,87 %
18.03.2023 11:20 17,4 C 28,3 C 20,6 C 71 % 1011,3 hPa 0,0 l/m 2 min 0 min 622 W/m 3,2 km/h (1 Bft) 97,87 %
18.03.2023 11:22 17,6 C 28,9 C 20,6 C 71 % 1011,3 hPa 0,0 l/m 2 min 0 min 667 W/m 9,7 km/h (2 Bft) 95,74 %
18.03.2023 11:24 17,7 C 27,8 C 20,6 C 70 % 1011,4 hPa 0,0 l/m 2 min 0 min 665 W/m 12,9 km/h (3 Bft) 95,65 %
18.03.2023 11:26 17,8 C 27,8 C 20,6 C 70 % 1011,4 hPa 0,0 l/m 2 min 0 min 641 W/m 6,4 km/h (2 Bft) 97,87 %
18.03.2023 11:28 17,8 C 27,2 C 20,6 C 69 % 1011,4 hPa 0,0 l/m 2 min 0 min 629 W/m 12,9 km/h (3 Bft) 95,74 %
18.03.2023 11:30 17,9 C 26,7 C 20,0 C 69 % 1011,3 hPa 0,0 l/m 2 min 0 min 630 W/m 6,4 km/h (2 Bft) 97,87 %
18.03.2023 11:32 17,9 C 27,8 C 19,4 C 69 % 1011,3 hPa 0,0 l/m 2 min 0 min 641 W/m 9,7 km/h (2 Bft) 97,87 %
18.03.2023 11:34 17,9 C 28,3 C 19,4 C 70 % 1011,3 hPa 0,0 l/m 2 min 0 min 646 W/m 12,9 km/h (3 Bft) 97,87 %
18.03.2023 11:36 18,0 C 27,2 C 19,4 C 69 % 1011,3 hPa 0,0 l/m 2 min 0 min 648 W/m 16,1 km/h (3 Bft) 97,83 %
18.03.2023 11:38 18,0 C 26,7 C 19,4 C 69 % 1011,4 hPa 0,0 l/m 2 min 0 min 682 W/m 16,1 km/h (3 Bft) 97,87 %
18.03.2023 11:40 18,1 C 26,7 C 19,4 C 68 % 1011,4 hPa 0,0 l/m 2 min 0 min 719 W/m 6,4 km/h (2 Bft) 95,74 %
18.03.2023 11:42 18,1 C 27,8 C 19,4 C 68 % 1011,4 hPa 0,0 l/m 2 min 0 min 729 W/m 6,4 km/h (2 Bft) 95,74 %
18.03.2023 11:44 18,2 C 27,2 C 18,9 C 69 % 1011,3 hPa 0,0 l/m 2 min 0 min 698 W/m 6,4 km/h (2 Bft) 97,87 %
18.03.2023 11:46 18,2 C 27,2 C 18,3 C 68 % 1011,3 hPa 0,0 l/m 2 min 0 min 666 W/m 12,9 km/h (3 Bft) 97,87 %
18.03.2023 11:48 18,2 C 26,1 C 18,3 C 68 % 1011,3 hPa 0,0 l/m 2 min 0 min 636 W/m 16,1 km/h (3 Bft) 97,87 %
18.03.2023 11:50 18,2 C 26,1 C 17,8 C 67 % 1011,3 hPa 0,0 l/m 2 min 0 min 736 W/m 6,4 km/h (2 Bft) 97,83 %
18.03.2023 11:52 18,3 C 24,4 C 17,2 C 67 % 1011,2 hPa 0,0 l/m 2 min 0 min 751 W/m 12,9 km/h (3 Bft) 95,74 %
18.03.2023 11:54 18,3 C 23,9 C 17,2 C 67 % 1011,2 hPa 0,0 l/m 2 min 0 min 661 W/m 6,4 km/h (2 Bft) 95,74 %
18.03.2023 11:56 18,3 C 22,8 C 17,2 C 67 % 1011,2 hPa 0,0 l/m 2 min 0 min 702 W/m 12,9 km/h (3 Bft) 95,74 %
18.03.2023 11:58 18,2 C 21,7 C 16,7 C 67 % 1011,2 hPa 0,0 l/m 2 min 0 min 728 W/m 12,9 km/h (3 Bft) 95,74 %
18.03.2023 12:00 18,2 C 20,0 C 15,6 C 67 % 1011,2 hPa 0,0 l/m 2 min 0 min 639 W/m 19,3 km/h (3 Bft) 95,74 %
18.03.2023 12:02 18,1 C 19,4 C 15,0 C 68 % 1011,2 hPa 0,0 l/m 0 min 0 min 224 W/m 6,4 km/h (2 Bft) 95,74 %
18.03.2023 12:04 17,9 C 18,9 C 14,4 C 68 % 1011,3 hPa 0,0 l/m 0 min 0 min 248 W/m 12,9 km/h (3 Bft) 97,87 %
18.03.2023 12:07 17,7 C 18,3 C 14,4 C 68 % 1011,4 hPa 0,0 l/m 0 min 0 min 232 W/m 16,1 km/h (3 Bft) 95,77 %
18.03.2023 12:08 17,7 C 18,3 C 14,4 C 68 % 1011,4 hPa 0,0 l/m 0 min 0 min 267 W/m 12,9 km/h (3 Bft) 95,65 %
18.03.2023 12:12 17,5 C 17,2 C 13,9 C 69 % 1011,3 hPa 0,0 l/m 0 min 0 min 241 W/m 12,9 km/h (3 Bft) 98,18 %
18.03.2023 12:14 17,4 C 17,2 C 13,3 C 69 % 1011,4 hPa 0,0 l/m 0 min 0 min 238 W/m 19,3 km/h (3 Bft) 97,87 %
18.03.2023 12:16 17,3 C 17,2 C 13,3 C 69 % 1011,3 hPa 0,0 l/m 0 min 0 min 254 W/m 12,9 km/h (3 Bft) 97,87 %
18.03.2023 12:18 17,3 C 17,8 C 13,9 C 70 % 1011,3 hPa 0,0 l/m 2 min 0 min 340 W/m 16,1 km/h (3 Bft) 95,74 %
18.03.2023 12:20 17,2 C 17,8 C 13,9 C 70 % 1011,3 hPa 0,0 l/m 0 min 0 min 288 W/m 16,1 km/h (3 Bft) 97,87 %
18.03.2023 12:22 17,2 C 17,8 C 13,9 C 70 % 1011,3 hPa 0,0 l/m 0 min 0 min 250 W/m 19,3 km/h (3 Bft) 97,83 %
18.03.2023 12:24 17,2 C 17,2 C 13,3 C 70 % 1011,4 hPa 0,0 l/m 0 min 0 min 226 W/m 12,9 km/h (3 Bft) 97,87 %
18.03.2023 12:26 17,1 C 17,8 C 13,9 C 70 % 1011,3 hPa 0,0 l/m 0 min 0 min 254 W/m 6,4 km/h (2 Bft) 97,87 %
18.03.2023 12:28 17,1 C 18,9 C 14,4 C 70 % 1011,3 hPa 0,0 l/m 2 min 0 min 420 W/m 9,7 km/h (2 Bft) 100,00 %
18.03.2023 12:30 17,2 C 18,9 C 15,0 C 70 % 1011,4 hPa 0,0 l/m 2 min 0 min 469 W/m 16,1 km/h (3 Bft) 100,00 %
18.03.2023 12:32 17,2 C 18,3 C 14,4 C 70 % 1011,3 hPa 0,0 l/m 2 min 0 min 308 W/m 12,9 km/h (3 Bft) 100,00 %
18.03.2023 12:34 17,2 C 18,3 C 13,9 C 70 % 1011,3 hPa 0,0 l/m 0 min 0 min 241 W/m 12,9 km/h (3 Bft) 97,87 %
18.03.2023 12:36 17,2 C 18,3 C 13,9 C 70 % 1011,3 hPa 0,0 l/m 0 min 0 min 264 W/m 22,5 km/h (4 Bft) 100,00 %
18.03.2023 12:38 17,1 C 17,8 C 13,9 C 69 % 1011,3 hPa 0,0 l/m 0 min 0 min 300 W/m 22,5 km/h (4 Bft) 100,00 %
18.03.2023 12:40 17,1 C 18,9 C 13,9 C 69 % 1011,3 hPa 0,0 l/m 2 min 0 min 393 W/m 16,1 km/h (3 Bft) 97,87 %
18.03.2023 12:42 17,1 C 18,9 C 13,9 C 69 % 1011,3 hPa 0,0 l/m 2 min 0 min 449 W/m 16,1 km/h (3 Bft) 97,87 %
18.03.2023 12:44 17,2 C 19,4 C 13,9 C 69 % 1011,3 hPa 0,0 l/m 2 min 0 min 371 W/m 19,3 km/h (3 Bft) 100,00 %
18.03.2023 12:46 17,2 C 19,4 C 13,9 C 68 % 1011,3 hPa 0,0 l/m 2 min 0 min 377 W/m 22,5 km/h (4 Bft) 100,00 %
18.03.2023 12:48 17,3 C 18,9 C 13,9 C 68 % 1011,4 hPa 0,0 l/m 2 min 0 min 349 W/m 19,3 km/h (3 Bft) 100,00 %
18.03.2023 12:50 17,3 C 18,3 C 13,9 C 68 % 1011,4 hPa 0,0 l/m 0 min 0 min 219 W/m 12,9 km/h (3 Bft) 100,00 %
18.03.2023 12:52 17,3 C 18,3 C 13,3 C 68 % 1011,5 hPa 0,0 l/m 0 min 0 min 231 W/m 22,5 km/h (4 Bft) 100,00 %
18.03.2023 12:54 17,2 C 17,8 C 13,3 C 68 % 1011,4 hPa 0,0 l/m 0 min 0 min 227 W/m 22,5 km/h (4 Bft) 100,00 %
18.03.2023 12:56 17,2 C 17,8 C 13,3 C 68 % 1011,4 hPa 0,0 l/m 0 min 0 min 246 W/m 22,5 km/h (4 Bft) 100,00 %
18.03.2023 12:58 17,2 C 17,2 C 13,3 C 68 % 1011,4 hPa 0,0 l/m 0 min 0 min 264 W/m 22,5 km/h (4 Bft) 100,00 %
18.03.2023 13:00 17,2 C 17,2 C 13,3 C 68 % 1011,4 hPa 0,0 l/m 0 min 0 min 259 W/m 22,5 km/h (4 Bft) 70,21 %
18.03.2023 13:02 17,2 C 17,8 C 13,3 C 69 % 1011,4 hPa 0,0 l/m 0 min 0 min 259 W/m 9,7 km/h (2 Bft) 80,00 %
18.03.2023 13:04 17,2 C 18,3 C 13,3 C 69 % 1011,3 hPa 0,0 l/m 2 min 0 min 327 W/m 16,1 km/h (3 Bft) 97,87 %
18.03.2023 13:06 17,2 C 18,9 C 13,3 C 68 % 1011,3 hPa 0,0 l/m 2 min 0 min 397 W/m 19,3 km/h (3 Bft) 98,28 %
18.03.2023 13:08 17,2 C 18,9 C 13,9 C 68 % 1011,3 hPa 0,0 l/m 2 min 0 min 393 W/m 12,9 km/h (3 Bft) 97,14 %
18.03.2023 13:10 17,2 C 18,9 C 13,9 C 67 % 1011,3 hPa 0,0 l/m 2 min 0 min 366 W/m 19,3 km/h (3 Bft) 100,00 %
18.03.2023 13:12 17,2 C 18,9 C 13,3 C 68 % 1011,2 hPa 0,0 l/m 2 min 0 min 344 W/m 25,7 km/h (4 Bft) 100,00 %
18.03.2023 13:14 17,2 C 18,3 C 13,3 C 68 % 1011,2 hPa 0,0 l/m 2 min 0 min 318 W/m 16,1 km/h (3 Bft) 97,87 %
18.03.2023 13:16 17,2 C 18,3 C 13,3 C 68 % 1011,2 hPa 0,0 l/m 0 min 0 min 286 W/m 16,1 km/h (3 Bft) 100,00 %
18.03.2023 13:18 17,2 C 18,3 C 13,3 C 68 % 1011,2 hPa 0,0 l/m 0 min 0 min 279 W/m 16,1 km/h (3 Bft) 97,83 %
18.03.2023 13:20 17,3 C 18,3 C 13,3 C 68 % 1011,2 hPa 0,0 l/m 2 min 0 min 310 W/m 19,3 km/h (3 Bft) 100,00 %
18.03.2023 13:22 17,3 C 18,9 C 13,3 C 68 % 1011,2 hPa 0,0 l/m 2 min 0 min 398 W/m 12,9 km/h (3 Bft) 97,87 %
18.03.2023 13:24 17,3 C 19,4 C 13,3 C 67 % 1011,1 hPa 0,0 l/m 2 min 0 min 504 W/m 19,3 km/h (3 Bft) 97,87 %
18.03.2023 13:26 17,4 C 20,0 C 13,9 C 67 % 1011,1 hPa 0,0 l/m 2 min 0 min 578 W/m 16,1 km/h (3 Bft) 95,74 %
18.03.2023 13:28 17,4 C 20,0 C 13,9 C 67 % 1011,1 hPa 0,0 l/m 2 min 0 min 490 W/m 16,1 km/h (3 Bft) 95,74 %
18.03.2023 13:30 17,5 C 20,0 C 13,9 C 67 % 1011,1 hPa 0,0 l/m 2 min 0 min 395 W/m 12,9 km/h (3 Bft) 97,87 %
18.03.2023 13:32 17,6 C 18,9 C 13,3 C 67 % 1011,1 hPa 0,0 l/m 2 min 0 min 296 W/m 22,5 km/h (4 Bft) 95,65 %
18.03.2023 13:34 17,6 C 19,4 C 13,3 C 67 % 1011,1 hPa 0,0 l/m 0 min 0 min 287 W/m 6,4 km/h (2 Bft) 97,87 %
18.03.2023 13:36 17,6 C 19,4 C 13,3 C 67 % 1011,1 hPa 0,0 l/m 0 min 0 min 280 W/m 16,1 km/h (3 Bft) 95,74 %
18.03.2023 13:38 17,6 C 18,9 C 13,3 C 67 % 1011,1 hPa 0,0 l/m 0 min 0 min 247 W/m 12,9 km/h (3 Bft) 95,74 %
18.03.2023 13:40 17,6 C 18,3 C 13,3 C 67 % 1011,1 hPa 0,0 l/m 0 min 0 min 226 W/m 12,9 km/h (3 Bft) 97,87 %
18.03.2023 13:42 17,6 C 17,8 C 13,3 C 67 % 1011,1 hPa 0,0 l/m 0 min 0 min 208 W/m 16,1 km/h (3 Bft) 97,87 %
18.03.2023 13:44 17,6 C 17,2 C 13,3 C 67 % 1011,1 hPa 0,0 l/m 0 min 0 min 182 W/m 12,9 km/h (3 Bft) 93,48 %
18.03.2023 13:46 17,6 C 17,2 C 13,3 C 67 % 1011,1 hPa 0,0 l/m 0 min 0 min 170 W/m 19,3 km/h (3 Bft) 95,74 %
18.03.2023 13:48 17,5 C 17,2 C 12,8 C 67 % 1011,1 hPa 0,0 l/m 0 min 0 min 179 W/m 12,9 km/h (3 Bft) 93,62 %
18.03.2023 13:50 17,4 C 17,2 C 12,8 C 68 % 1011,0 hPa 0,0 l/m 0 min 0 min 191 W/m 16,1 km/h (3 Bft) 91,49 %
18.03.2023 13:52 17,4 C 17,2 C 12,8 C 67 % 1011,0 hPa 0,0 l/m 0 min 0 min 192 W/m 19,3 km/h (3 Bft) 97,87 %
18.03.2023 13:54 17,4 C 17,2 C 12,8 C 68 % 1011,0 hPa 0,0 l/m 0 min 0 min 195 W/m 12,9 km/h (3 Bft) 95,74 %
18.03.2023 13:56 17,3 C 16,7 C 12,8 C 67 % 1010,9 hPa 0,0 l/m 0 min 0 min 204 W/m 19,3 km/h (3 Bft) 93,62 %
18.03.2023 13:58 17,3 C 16,7 C 12,8 C 67 % 1010,9 hPa 0,0 l/m 0 min 0 min 196 W/m 16,1 km/h (3 Bft) 95,74 %
18.03.2023 14:00 17,2 C 16,7 C 12,8 C 67 % 1011,0 hPa 0,0 l/m 0 min 0 min 173 W/m 16,1 km/h (3 Bft) 91,30 %
18.03.2023 14:02 17,2 C 16,7 C 12,8 C 67 % 1011,0 hPa 0,0 l/m 0 min 0 min 152 W/m 16,1 km/h (3 Bft) 91,49 %
18.03.2023 14:04 17,2 C 16,7 C 12,8 C 67 % 1011,0 hPa 0,0 l/m 0 min 0 min 134 W/m 16,1 km/h (3 Bft) 93,62 %
18.03.2023 14:06 17,1 C 16,1 C 12,8 C 67 % 1011,0 hPa 0,0 l/m 0 min 0 min 116 W/m 19,3 km/h (3 Bft) 93,22 %
18.03.2023 14:08 17,1 C 16,1 C 12,2 C 67 % 1011,0 hPa 0,0 l/m 0 min 0 min 99 W/m 12,9 km/h (3 Bft) 88,57 %
18.03.2023 14:10 17,1 C 16,1 C 12,2 C 67 % 1011,0 hPa 0,0 l/m 0 min 0 min 97 W/m 16,1 km/h (3 Bft) 93,62 %
18.03.2023 14:12 17,0 C 16,1 C 12,2 C 68 % 1011,0 hPa 0,0 l/m 0 min 0 min 94 W/m 12,9 km/h (3 Bft) 95,74 %
18.03.2023 14:14 16,9 C 16,1 C 12,2 C 68 % 1011,0 hPa 0,0 l/m 0 min 0 min 84 W/m 16,1 km/h (3 Bft) 91,30 %
18.03.2023 14:16 16,9 C 16,1 C 12,2 C 68 % 1011,0 hPa 0,0 l/m 0 min 0 min 64 W/m 12,9 km/h (3 Bft) 93,62 %
18.03.2023 14:18 16,9 C 16,1 C 12,2 C 68 % 1011,0 hPa 0,0 l/m 0 min 0 min 54 W/m 6,4 km/h (2 Bft) 91,49 %
18.03.2023 14:20 16,8 C 15,6 C 12,2 C 68 % 1011,0 hPa 0,0 l/m 0 min 0 min 48 W/m 12,9 km/h (3 Bft) 91,49 %
18.03.2023 14:22 16,8 C 15,6 C 12,2 C 69 % 1011,0 hPa 0,0 l/m 0 min 2 min 56 W/m 9,7 km/h (2 Bft) 95,74 %
18.03.2023 14:24 16,8 C 16,1 C 11,1 C 70 % 1011,1 hPa 0,0 l/m 0 min 2 min 99 W/m 12,9 km/h (3 Bft) 93,62 %
18.03.2023 14:26 16,8 C 16,1 C 10,0 C 72 % 1011,1 hPa 0,0 l/m 0 min 2 min 181 W/m 12,9 km/h (3 Bft) 93,48 %
18.03.2023 14:28 16,8 C 16,1 C 10,0 C 73 % 1011,1 hPa 0,0 l/m 0 min 2 min 224 W/m 12,9 km/h (3 Bft) 93,62 %
18.03.2023 14:30 16,7 C 16,1 C 9,4 C 74 % 1011,1 hPa 0,0 l/m 0 min 2 min 211 W/m 12,9 km/h (3 Bft) 95,74 %
18.03.2023 14:32 16,7 C 15,6 C 9,4 C 75 % 1011,1 hPa 0,0 l/m 0 min 0 min 180 W/m 16,1 km/h (3 Bft) 93,62 %
18.03.2023 14:34 16,6 C 15,6 C 9,4 C 76 % 1011,1 hPa 0,2 l/m 0 min 2 min 124 W/m 16,1 km/h (3 Bft) 95,74 %
18.03.2023 14:36 16,4 C 15,0 C 9,4 C 75 % 1011,2 hPa 0,0 l/m 0 min 2 min 71 W/m 12,9 km/h (3 Bft) 97,87 %
18.03.2023 14:38 16,3 C 15,0 C 9,4 C 75 % 1011,1 hPa 0,0 l/m 0 min 2 min 33 W/m 9,7 km/h (2 Bft) 95,74 %
18.03.2023 14:40 16,1 C 15,0 C 8,9 C 76 % 1011,2 hPa 0,0 l/m 0 min 2 min 24 W/m 16,1 km/h (3 Bft) 97,83 %
18.03.2023 14:42 15,9 C 14,4 C 8,9 C 77 % 1011,3 hPa 0,0 l/m 0 min 2 min 28 W/m 22,5 km/h (4 Bft) 97,87 %
18.03.2023 14:44 15,7 C 13,9 C 8,3 C 78 % 1011,3 hPa 0,2 l/m 0 min 2 min 40 W/m 29,0 km/h (5 Bft) 95,74 %
18.03.2023 14:46 15,4 C 12,8 C 8,3 C 79 % 1011,3 hPa 0,2 l/m 0 min 2 min 61 W/m 22,5 km/h (4 Bft) 97,87 %
18.03.2023 14:48 15,3 C 12,8 C 8,3 C 80 % 1011,2 hPa 0,0 l/m 0 min 2 min 87 W/m 16,1 km/h (3 Bft) 100,00 %
18.03.2023 14:50 15,2 C 12,8 C 8,3 C 81 % 1011,2 hPa 0,2 l/m 0 min 2 min 123 W/m 12,9 km/h (3 Bft) 97,87 %
18.03.2023 14:52 15,1 C 12,8 C 8,3 C 82 % 1011,3 hPa 0,0 l/m 0 min 2 min 142 W/m 12,9 km/h (3 Bft) 97,87 %
18.03.2023 14:54 15,0 C 13,3 C 8,9 C 82 % 1011,2 hPa 0,0 l/m 0 min 2 min 138 W/m 12,9 km/h (3 Bft) 100,00 %
18.03.2023 14:56 14,9 C 13,3 C 8,9 C 83 % 1011,2 hPa 0,0 l/m 0 min 0 min 138 W/m 6,4 km/h (2 Bft) 95,74 %
18.03.2023 14:58 14,8 C 13,3 C 8,3 C 84 % 1011,2 hPa 0,0 l/m 0 min 0 min 138 W/m 9,7 km/h (2 Bft) 100,00 %
18.03.2023 15:00 14,7 C 13,3 C 8,3 C 84 % 1011,1 hPa 0,0 l/m 0 min 0 min 142 W/m 6,4 km/h (2 Bft) 97,87 %
18.03.2023 15:02 14,6 C 13,9 C 8,3 C 85 % 1011,1 hPa 0,0 l/m 0 min 0 min 150 W/m 3,2 km/h (1 Bft) 93,62 %
18.03.2023 15:04 14,6 C 13,9 C 8,3 C 85 % 1011,0 hPa 0,0 l/m 0 min 0 min 179 W/m 9,7 km/h (2 Bft) 100,00 %
18.03.2023 15:06 14,5 C 14,4 C 8,9 C 85 % 1011,0 hPa 0,0 l/m 0 min 0 min 200 W/m 3,2 km/h (1 Bft) 98,28 %
18.03.2023 15:08 14,5 C 14,4 C 8,9 C 86 % 1010,9 hPa 0,0 l/m 0 min 0 min 207 W/m 0,0 km/h (0 Bft) 97,14 %
18.03.2023 15:10 14,5 C 15,0 C 8,9 C 86 % 1010,9 hPa 0,0 l/m 0 min 0 min 221 W/m 6,4 km/h (2 Bft) 100,00 %
18.03.2023 15:12 14,5 C 15,0 C 8,9 C 86 % 1010,9 hPa 0,0 l/m 0 min 0 min 238 W/m 3,2 km/h (1 Bft) 100,00 %
18.03.2023 15:14 14,5 C 15,6 C 8,9 C 86 % 1010,9 hPa 0,0 l/m 2 min 0 min 310 W/m 6,4 km/h (2 Bft) 100,00 %
18.03.2023 15:16 14,6 C 16,1 C 8,9 C 86 % 1010,9 hPa 0,0 l/m 2 min 0 min 332 W/m 3,2 km/h (1 Bft) 100,00 %
18.03.2023 15:18 14,7 C 16,7 C 8,9 C 87 % 1010,9 hPa 0,0 l/m 2 min 0 min 298 W/m 3,2 km/h (1 Bft) 100,00 %
18.03.2023 15:20 14,7 C 16,7 C 8,9 C 87 % 1010,9 hPa 0,0 l/m 2 min 0 min 239 W/m 3,2 km/h (1 Bft) 100,00 %
18.03.2023 15:22 14,7 C 16,1 C 8,9 C 86 % 1010,9 hPa 0,0 l/m 2 min 0 min 260 W/m 6,4 km/h (2 Bft) 100,00 %
18.03.2023 15:24 14,8 C 16,1 C 8,9 C 86 % 1010,9 hPa 0,0 l/m 2 min 0 min 263 W/m 3,2 km/h (1 Bft) 100,00 %
18.03.2023 15:26 14,8 C 16,1 C 8,9 C 86 % 1010,8 hPa 0,0 l/m 2 min 0 min 411 W/m 6,4 km/h (2 Bft) 100,00 %
18.03.2023 15:28 14,9 C 16,7 C 8,9 C 85 % 1010,8 hPa 0,0 l/m 2 min 0 min 439 W/m 6,4 km/h (2 Bft) 100,00 %
18.03.2023 15:30 14,9 C 17,2 C 8,9 C 85 % 1010,8 hPa 0,0 l/m 2 min 0 min 502 W/m 6,4 km/h (2 Bft) 100,00 %
18.03.2023 15:32 15,1 C 17,2 C 8,9 C 84 % 1010,8 hPa 0,0 l/m 2 min 0 min 503 W/m 3,2 km/h (1 Bft) 100,00 %
18.03.2023 15:34 15,2 C 18,3 C 8,9 C 84 % 1010,8 hPa 0,0 l/m 2 min 0 min 486 W/m 6,4 km/h (2 Bft) 100,00 %
18.03.2023 15:36 15,3 C 18,9 C 8,9 C 84 % 1010,7 hPa 0,0 l/m 2 min 0 min 479 W/m 6,4 km/h (2 Bft) 100,00 %
18.03.2023 15:38 15,4 C 20,0 C 8,9 C 83 % 1010,8 hPa 0,0 l/m 2 min 0 min 470 W/m 6,4 km/h (2 Bft) 100,00 %
18.03.2023 15:40 15,6 C 20,6 C 9,4 C 83 % 1010,7 hPa 0,0 l/m 2 min 0 min 451 W/m 6,4 km/h (2 Bft) 100,00 %
18.03.2023 15:42 15,8 C 20,6 C 9,4 C 83 % 1010,8 hPa 0,0 l/m 2 min 0 min 445 W/m 3,2 km/h (1 Bft) 97,87 %
18.03.2023 15:44 15,9 C 20,6 C 8,9 C 81 % 1010,8 hPa 0,0 l/m 2 min 0 min 418 W/m 3,2 km/h (1 Bft) 100,00 %
18.03.2023 15:46 16,0 C 20,6 C 8,9 C 80 % 1010,7 hPa 0,0 l/m 2 min 0 min 436 W/m 3,2 km/h (1 Bft) 97,83 %
18.03.2023 15:48 16,2 C 20,6 C 9,4 C 80 % 1010,7 hPa 0,0 l/m 2 min 0 min 437 W/m 3,2 km/h (1 Bft) 100,00 %
18.03.2023 15:50 16,3 C 20,6 C 8,9 C 79 % 1010,7 hPa 0,0 l/m 2 min 0 min 437 W/m 3,2 km/h (1 Bft) 100,00 %
18.03.2023 15:52 16,3 C 20,0 C 8,9 C 78 % 1010,6 hPa 0,0 l/m 2 min 0 min 440 W/m 6,4 km/h (2 Bft) 100,00 %
18.03.2023 15:54 16,4 C 20,6 C 8,9 C 78 % 1010,7 hPa 0,0 l/m 2 min 0 min 429 W/m 6,4 km/h (2 Bft) 100,00 %
18.03.2023 15:56 16,5 C 21,1 C 8,9 C 77 % 1010,7 hPa 0,0 l/m 2 min 0 min 415 W/m 9,7 km/h (2 Bft) 93,62 %
18.03.2023 15:58 16,6 C 21,1 C 8,9 C 77 % 1010,7 hPa 0,0 l/m 2 min 0 min 413 W/m 9,7 km/h (2 Bft) 100,00 %
18.03.2023 16:00 16,7 C 21,1 C 8,9 C 77 % 1010,7 hPa 0,0 l/m 2 min 0 min 423 W/m 3,2 km/h (1 Bft) 100,00 %
18.03.2023 16:02 16,9 C 21,1 C 8,9 C 77 % 1010,7 hPa 0,0 l/m 2 min 0 min 440 W/m 3,2 km/h (1 Bft) 97,87 %
18.03.2023 16:04 16,9 C 21,1 C 8,9 C 76 % 1010,6 hPa 0,0 l/m 2 min 0 min 440 W/m 6,4 km/h (2 Bft) 97,87 %
18.03.2023 16:06 17,0 C 18,9 C 8,9 C 76 % 1010,6 hPa 0,0 l/m 0 min 0 min 101 W/m 12,9 km/h (3 Bft) 93,62 %
18.03.2023 16:08 17,0 C 18,3 C 8,9 C 75 % 1010,6 hPa 0,0 l/m 0 min 0 min 132 W/m 12,9 km/h (3 Bft) 95,74 %
18.03.2023 16:10 17,0 C 18,9 C 8,9 C 75 % 1010,6 hPa 0,0 l/m 0 min 0 min 181 W/m 6,4 km/h (2 Bft) 95,74 %
18.03.2023 16:12 17,0 C 19,4 C 8,9 C 75 % 1010,7 hPa 0,0 l/m 2 min 0 min 354 W/m 3,2 km/h (1 Bft) 93,62 %
18.03.2023 16:14 17,1 C 18,9 C 8,9 C 76 % 1010,7 hPa 0,0 l/m 2 min 0 min 207 W/m 6,4 km/h (2 Bft) 97,83 %
18.03.2023 16:16 17,1 C 18,3 C 8,9 C 76 % 1010,7 hPa 0,0 l/m 0 min 0 min 136 W/m 6,4 km/h (2 Bft) 97,87 %
18.03.2023 16:18 17,0 C 17,8 C 8,9 C 75 % 1010,6 hPa 0,0 l/m 0 min 0 min 135 W/m 12,9 km/h (3 Bft) 93,62 %
18.03.2023 16:20 17,0 C 18,3 C 8,9 C 75 % 1010,6 hPa 0,0 l/m 0 min 0 min 128 W/m 12,9 km/h (3 Bft) 95,74 %
18.03.2023 16:22 16,9 C 18,9 C 8,9 C 74 % 1010,6 hPa 0,0 l/m 0 min 0 min 138 W/m 12,9 km/h (3 Bft) 97,87 %
18.03.2023 16:24 16,9 C 19,4 C 8,9 C 74 % 1010,5 hPa 0,0 l/m 2 min 0 min 390 W/m 16,1 km/h (3 Bft) 97,87 %
18.03.2023 16:26 17,0 C 20,0 C 8,9 C 75 % 1010,5 hPa 0,0 l/m 2 min 0 min 411 W/m 6,4 km/h (2 Bft) 97,83 %
18.03.2023 16:28 17,0 C 20,0 C 8,9 C 75 % 1010,5 hPa 0,0 l/m 2 min 0 min 361 W/m 6,4 km/h (2 Bft) 93,62 %
18.03.2023 16:30 17,1 C 20,0 C 8,9 C 75 % 1010,5 hPa 0,0 l/m 2 min 0 min 327 W/m 9,7 km/h (2 Bft) 95,74 %
18.03.2023 16:32 17,1 C 20,6 C 8,9 C 75 % 1010,5 hPa 0,0 l/m 2 min 0 min 344 W/m 3,2 km/h (1 Bft) 95,74 %
18.03.2023 16:34 17,2 C 20,0 C 9,4 C 74 % 1010,5 hPa 0,0 l/m 2 min 0 min 367 W/m 6,4 km/h (2 Bft) 93,62 %
18.03.2023 16:36 17,2 C 20,0 C 9,4 C 74 % 1010,5 hPa 0,0 l/m 2 min 0 min 364 W/m 12,9 km/h (3 Bft) 95,74 %
18.03.2023 16:38 17,2 C 19,4 C 9,4 C 74 % 1010,5 hPa 0,0 l/m 2 min 0 min 277 W/m 12,9 km/h (3 Bft) 95,74 %
18.03.2023 16:40 17,2 C 18,9 C 9,4 C 73 % 1010,5 hPa 0,0 l/m 2 min 0 min 265 W/m 6,4 km/h (2 Bft) 95,65 %
18.03.2023 16:42 17,3 C 17,8 C 9,4 C 74 % 1010,4 hPa 0,0 l/m 2 min 0 min 167 W/m 12,9 km/h (3 Bft) 97,87 %
18.03.2023 16:44 17,3 C 17,2 C 10,0 C 74 % 1010,5 hPa 0,0 l/m 0 min 0 min 124 W/m 6,4 km/h (2 Bft) 93,62 %
18.03.2023 16:46 17,3 C 16,7 C 10,0 C 74 % 1010,5 hPa 0,0 l/m 0 min 0 min 95 W/m 6,4 km/h (2 Bft) 89,36 %
18.03.2023 16:48 17,2 C 16,1 C 10,0 C 74 % 1010,5 hPa 0,0 l/m 0 min 0 min 78 W/m 6,4 km/h (2 Bft) 93,62 %
18.03.2023 16:50 17,2 C 16,1 C 10,6 C 74 % 1010,5 hPa 0,0 l/m 0 min 0 min 74 W/m 6,4 km/h (2 Bft) 95,74 %
18.03.2023 16:52 17,2 C 16,7 C 10,6 C 74 % 1010,5 hPa 0,0 l/m 0 min 0 min 80 W/m 12,9 km/h (3 Bft) 91,49 %
18.03.2023 16:54 17,1 C 17,8 C 10,6 C 74 % 1010,5 hPa 0,0 l/m 2 min 0 min 165 W/m 6,4 km/h (2 Bft) 93,48 %
18.03.2023 16:56 17,1 C 17,8 C 10,6 C 74 % 1010,4 hPa 0,0 l/m 2 min 0 min 256 W/m 12,9 km/h (3 Bft) 95,74 %
18.03.2023 16:58 17,1 C 17,2 C 10,6 C 75 % 1010,5 hPa 0,0 l/m 2 min 0 min 143 W/m 12,9 km/h (3 Bft) 97,87 %
18.03.2023 17:00 17,1 C 16,7 C 10,6 C 75 % 1010,5 hPa 0,0 l/m 0 min 0 min 51 W/m 12,9 km/h (3 Bft) 95,74 %
18.03.2023 17:02 17,0 C 16,1 C 10,6 C 75 % 1010,5 hPa 0,0 l/m 0 min 0 min 50 W/m 6,4 km/h (2 Bft) 95,74 %
18.03.2023 17:04 16,9 C 16,1 C 10,6 C 75 % 1010,4 hPa 0,0 l/m 0 min 0 min 74 W/m 6,4 km/h (2 Bft) 93,62 %
18.03.2023 17:06 16,9 C 16,1 C 10,6 C 75 % 1010,5 hPa 0,0 l/m 0 min 0 min 87 W/m 6,4 km/h (2 Bft) 95,83 %
18.03.2023 17:08 16,8 C 16,1 C 10,6 C 75 % 1010,5 hPa 0,0 l/m 0 min 0 min 100 W/m 6,4 km/h (2 Bft) 95,65 %
18.03.2023 17:10 16,8 C 15,6 C 11,1 C 74 % 1010,4 hPa 0,0 l/m 0 min 0 min 101 W/m 6,4 km/h (2 Bft) 95,74 %
18.03.2023 17:12 16,7 C 15,6 C 11,1 C 74 % 1010,5 hPa 0,0 l/m 0 min 0 min 79 W/m 6,4 km/h (2 Bft) 95,74 %
18.03.2023 17:14 16,7 C 15,6 C 11,1 C 75 % 1010,5 hPa 0,0 l/m 0 min 0 min 70 W/m 6,4 km/h (2 Bft) 97,87 %
18.03.2023 17:16 16,7 C 15,6 C 11,1 C 75 % 1010,4 hPa 0,0 l/m 0 min 0 min 54 W/m 12,9 km/h (3 Bft) 95,74 %
18.03.2023 17:18 16,6 C 15,6 C 11,1 C 75 % 1010,4 hPa 0,0 l/m 0 min 0 min 59 W/m 12,9 km/h (3 Bft) 95,74 %
18.03.2023 17:20 16,6 C 15,6 C 11,1 C 75 % 1010,4 hPa 0,0 l/m 0 min 0 min 90 W/m 6,4 km/h (2 Bft) 97,83 %
18.03.2023 17:22 16,5 C 15,6 C 11,1 C 75 % 1010,4 hPa 0,0 l/m 2 min 0 min 131 W/m 6,4 km/h (2 Bft) 97,87 %
18.03.2023 17:24 16,4 C 15,6 C 11,1 C 75 % 1010,4 hPa 0,0 l/m 2 min 0 min 134 W/m 3,2 km/h (1 Bft) 97,87 %
18.03.2023 17:26 16,4 C 15,6 C 11,1 C 75 % 1010,5 hPa 0,0 l/m 2 min 0 min 172 W/m 12,9 km/h (3 Bft) 93,62 %
18.03.2023 17:28 16,4 C 16,1 C 11,1 C 75 % 1010,4 hPa 0,0 l/m 2 min 0 min 184 W/m 6,4 km/h (2 Bft) 97,87 %
18.03.2023 17:30 16,4 C 16,1 C 11,1 C 76 % 1010,5 hPa 0,0 l/m 2 min 0 min 171 W/m 6,4 km/h (2 Bft) 100,00 %
18.03.2023 17:32 16,4 C 16,1 C 11,1 C 76 % 1010,5 hPa 0,0 l/m 2 min 0 min 163 W/m 12,9 km/h (3 Bft) 93,62 %
18.03.2023 17:34 16,4 C 16,1 C 11,1 C 76 % 1010,5 hPa 0,0 l/m 2 min 0 min 164 W/m 6,4 km/h (2 Bft) 100,00 %
18.03.2023 17:36 16,5 C 16,1 C 11,1 C 76 % 1010,5 hPa 0,0 l/m 2 min 0 min 167 W/m 16,1 km/h (3 Bft) 100,00 %
18.03.2023 17:38 16,5 C 16,7 C 11,1 C 76 % 1010,5 hPa 0,0 l/m 2 min 0 min 167 W/m 6,4 km/h (2 Bft) 100,00 %
18.03.2023 17:40 16,6 C 16,7 C 11,1 C 76 % 1010,5 hPa 0,0 l/m 2 min 0 min 175 W/m 12,9 km/h (3 Bft) 97,87 %
18.03.2023 17:42 16,6 C 16,7 C 11,1 C 76 % 1010,5 hPa 0,0 l/m 2 min 0 min 153 W/m 6,4 km/h (2 Bft) 95,74 %
18.03.2023 17:44 16,6 C 16,7 C 11,1 C 76 % 1010,5 hPa 0,0 l/m 2 min 0 min 136 W/m 6,4 km/h (2 Bft) 100,00 %
18.03.2023 17:46 16,7 C 16,1 C 11,1 C 76 % 1010,6 hPa 0,0 l/m 2 min 0 min 139 W/m 6,4 km/h (2 Bft) 97,87 %
18.03.2023 17:48 16,7 C 16,1 C 11,1 C 76 % 1010,6 hPa 0,0 l/m 2 min 0 min 134 W/m 12,9 km/h (3 Bft) 97,83 %
18.03.2023 17:50 16,7 C 16,1 C 11,1 C 76 % 1010,6 hPa 0,0 l/m 2 min 0 min 103 W/m 12,9 km/h (3 Bft) 100,00 %
18.03.2023 17:52 16,7 C 16,1 C 11,1 C 76 % 1010,6 hPa 0,0 l/m 2 min 0 min 76 W/m 6,4 km/h (2 Bft) 100,00 %
18.03.2023 17:54 16,7 C 15,6 C 11,1 C 76 % 1010,6 hPa 0,0 l/m 2 min 0 min 69 W/m 12,9 km/h (3 Bft) 97,87 %
18.03.2023 17:56 16,7 C 15,6 C 11,1 C 76 % 1010,7 hPa 0,0 l/m 2 min 0 min 62 W/m 6,4 km/h (2 Bft) 100,00 %
18.03.2023 17:58 16,7 C 15,6 C 11,1 C 76 % 1010,6 hPa 0,0 l/m 0 min 0 min 49 W/m 6,4 km/h (2 Bft) 100,00 %
18.03.2023 18:00 16,7 C 15,6 C 11,1 C 76 % 1010,7 hPa 0,0 l/m 0 min 0 min 39 W/m 6,4 km/h (2 Bft) 100,00 %
18.03.2023 18:02 16,7 C 15,6 C 11,1 C 76 % 1010,7 hPa 0,0 l/m 0 min 0 min 30 W/m 6,4 km/h (2 Bft) 95,65 %
18.03.2023 18:04 16,7 C 15,0 C 11,1 C 76 % 1010,7 hPa 0,0 l/m 0 min 0 min 24 W/m 12,9 km/h (3 Bft) 97,87 %
18.03.2023 18:07 16,6 C 15,0 C 10,6 C 75 % 1010,7 hPa 0,0 l/m 0 min 0 min 21 W/m 9,7 km/h (2 Bft) 98,61 %
18.03.2023 18:08 16,6 C 15,0 C 10,6 C 75 % 1010,7 hPa 0,0 l/m 0 min 0 min 19 W/m 6,4 km/h (2 Bft) 100,00 %
18.03.2023 18:12 16,6 C 15,0 C 10,6 C 75 % 1010,8 hPa 0,0 l/m 0 min 0 min 15 W/m 6,4 km/h (2 Bft) 100,00 %
18.03.2023 18:14 16,6 C 14,4 C 10,6 C 76 % 1010,7 hPa 0,0 l/m 0 min 0 min 13 W/m 3,2 km/h (1 Bft) 100,00 %
18.03.2023 18:16 16,5 C 14,4 C 10,6 C 76 % 1010,8 hPa 0,0 l/m 0 min 0 min 12 W/m 6,4 km/h (2 Bft) 100,00 %
18.03.2023 18:18 16,4 C 14,4 C 10,6 C 76 % 1010,8 hPa 0,0 l/m 0 min 0 min 12 W/m 6,4 km/h (2 Bft) 97,87 %
18.03.2023 18:20 16,4 C 14,4 C 10,6 C 76 % 1010,8 hPa 0,0 l/m 0 min 0 min 12 W/m 3,2 km/h (1 Bft) 100,00 %
18.03.2023 18:22 16,4 C 14,4 C 10,6 C 76 % 1010,7 hPa 0,0 l/m 0 min 0 min 11 W/m 6,4 km/h (2 Bft) 100,00 %
18.03.2023 18:24 16,3 C 14,4 C 10,6 C 76 % 1010,7 hPa 0,0 l/m 0 min 0 min 11 W/m 6,4 km/h (2 Bft) 100,00 %
18.03.2023 18:26 16,2 C 13,9 C 10,0 C 76 % 1010,8 hPa 0,0 l/m 0 min 0 min 9 W/m 6,4 km/h (2 Bft) 100,00 %
18.03.2023 18:28 16,2 C 13,9 C 10,0 C 77 % 1010,8 hPa 0,0 l/m 0 min 0 min 9 W/m 3,2 km/h (1 Bft) 95,74 %
18.03.2023 18:30 16,1 C 13,9 C 10,0 C 77 % 1010,8 hPa 0,0 l/m 0 min 0 min 8 W/m 3,2 km/h (1 Bft) 100,00 %
18.03.2023 18:32 16,0 C 13,9 C 10,0 C 77 % 1010,8 hPa 0,0 l/m 0 min 0 min 7 W/m 3,2 km/h (1 Bft) 97,87 %
18.03.2023 18:34 15,9 C 13,9 C 10,0 C 77 % 1010,9 hPa 0,0 l/m 0 min 0 min 7 W/m 3,2 km/h (1 Bft) 97,87 %
18.03.2023 18:36 15,9 C 13,9 C 10,0 C 78 % 1010,9 hPa 0,0 l/m 0 min 0 min 6 W/m 3,2 km/h (1 Bft) 97,87 %
18.03.2023 18:38 15,8 C 13,9 C 9,4 C 78 % 1010,9 hPa 0,0 l/m 0 min 0 min 5 W/m 3,2 km/h (1 Bft) 97,83 %
18.03.2023 18:40 15,7 C 13,3 C 9,4 C 78 % 1010,9 hPa 0,0 l/m 0 min 0 min 5 W/m 3,2 km/h (1 Bft) 97,87 %
18.03.2023 18:42 15,7 C 13,3 C 9,4 C 78 % 1010,9 hPa 0,0 l/m 0 min 0 min 3 W/m 3,2 km/h (1 Bft) 95,74 %
18.03.2023 18:44 15,6 C 13,3 C 9,4 C 78 % 1010,9 hPa 0,0 l/m 0 min 0 min 0 W/m 3,2 km/h (1 Bft) 97,87 %
18.03.2023 18:46 15,6 C 13,3 C 9,4 C 78 % 1010,9 hPa 0,0 l/m 0 min 0 min 0 W/m 3,2 km/h (1 Bft) 97,87 %
18.03.2023 18:48 15,4 C 13,3 C 9,4 C 78 % 1011,0 hPa 0,0 l/m 0 min 0 min 0 W/m 3,2 km/h (1 Bft) 97,87 %
18.03.2023 18:50 15,4 C 13,3 C 9,4 C 78 % 1010,9 hPa 0,0 l/m 0 min 0 min 0 W/m 3,2 km/h (1 Bft) 97,87 %
18.03.2023 18:52 15,3 C 13,3 C 8,9 C 78 % 1010,9 hPa 0,0 l/m 0 min 0 min 0 W/m 3,2 km/h (1 Bft) 95,65 %
18.03.2023 18:54 15,3 C 12,8 C 8,9 C 78 % 1010,9 hPa 0,0 l/m 0 min 0 min 0 W/m 3,2 km/h (1 Bft) 95,74 %
18.03.2023 18:56 15,2 C 12,8 C 8,9 C 78 % 1010,9 hPa 0,0 l/m 0 min 0 min 0 W/m 3,2 km/h (1 Bft) 95,74 %
18.03.2023 18:58 15,1 C 12,8 C 8,9 C 79 % 1010,9 hPa 0,0 l/m 0 min 0 min 0 W/m 3,2 km/h (1 Bft) 95,74 %
18.03.2023 19:00 15,1 C 12,8 C 8,3 C 79 % 1010,9 hPa 0,0 l/m 0 min 0 min 0 W/m 0,0 km/h (0 Bft) 97,87 %
18.03.2023 19:02 15,0 C 12,8 C 8,3 C 79 % 1011,0 hPa 0,0 l/m 0 min 0 min 0 W/m 0,0 km/h (0 Bft) 97,87 %
18.03.2023 19:04 14,9 C 12,8 C 8,3 C 79 % 1011,0 hPa 0,0 l/m 0 min 0 min 0 W/m 3,2 km/h (1 Bft) 93,62 %
18.03.2023 19:06 14,8 C 12,8 C 8,3 C 80 % 1011,0 hPa 0,0 l/m 0 min 0 min 0 W/m 3,2 km/h (1 Bft) 100,00 %
18.03.2023 19:08 14,8 C 12,8 C 8,3 C 80 % 1011,0 hPa 0,0 l/m 0 min 0 min 0 W/m 0,0 km/h (0 Bft) 97,87 %
18.03.2023 19:10 14,7 C 12,8 C 8,3 C 80 % 1011,0 hPa 0,0 l/m 0 min 0 min 0 W/m 3,2 km/h (1 Bft) 95,74 %
18.03.2023 19:12 14,7 C 12,2 C 7,8 C 80 % 1011,0 hPa 0,0 l/m 0 min 0 min 0 W/m 3,2 km/h (1 Bft) 97,87 %
18.03.2023 19:14 14,6 C 12,2 C 8,3 C 80 % 1011,0 hPa 0,0 l/m 0 min 0 min 0 W/m 3,2 km/h (1 Bft) 97,87 %
18.03.2023 19:16 14,6 C 12,2 C 8,3 C 80 % 1011,0 hPa 0,0 l/m 0 min 0 min 0 W/m 3,2 km/h (1 Bft) 97,87 %
18.03.2023 19:18 14,4 C 12,2 C 8,3 C 80 % 1011,0 hPa 0,0 l/m 0 min 0 min 0 W/m 0,0 km/h (0 Bft) 95,74 %
18.03.2023 19:20 14,4 C 12,2 C 8,3 C 80 % 1011,1 hPa 0,0 l/m 0 min 0 min 0 W/m 0,0 km/h (0 Bft) 97,83 %
18.03.2023 19:22 14,3 C 12,2 C 7,8 C 80 % 1011,1 hPa 0,0 l/m 0 min 0 min 0 W/m 3,2 km/h (1 Bft) 97,87 %
18.03.2023 19:24 14,3 C 12,2 C 7,8 C 81 % 1011,1 hPa 0,0 l/m 0 min 0 min 0 W/m 3,2 km/h (1 Bft) 95,74 %
18.03.2023 19:26 14,3 C 12,2 C 7,8 C 81 % 1011,1 hPa 0,0 l/m 0 min 0 min 0 W/m 3,2 km/h (1 Bft) 95,74 %
18.03.2023 19:28 14,2 C 12,2 C 7,8 C 81 % 1011,1 hPa 0,0 l/m 0 min 0 min 0 W/m 3,2 km/h (1 Bft) 95,74 %
18.03.2023 19:30 14,1 C 12,2 C 7,8 C 81 % 1011,1 hPa 0,0 l/m 0 min 0 min 0 W/m 3,2 km/h (1 Bft) 93,62 %
18.03.2023 19:32 14,1 C 12,2 C 7,8 C 81 % 1011,1 hPa 0,0 l/m 0 min 0 min 0 W/m 6,4 km/h (2 Bft) 89,13 %
18.03.2023 19:34 14,0 C 12,2 C 8,3 C 82 % 1011,1 hPa 0,0 l/m 0 min 0 min 0 W/m 3,2 km/h (1 Bft) 95,74 %
18.03.2023 19:36 13,9 C 12,2 C 8,3 C 82 % 1011,1 hPa 0,0 l/m 0 min 0 min 0 W/m 3,2 km/h (1 Bft) 95,74 %
18.03.2023 19:38 13,8 C 12,2 C 8,3 C 82 % 1011,1 hPa 0,0 l/m 0 min 0 min 0 W/m 3,2 km/h (1 Bft) 97,87 %
18.03.2023 19:40 13,8 C 12,2 C 8,3 C 82 % 1011,2 hPa 0,0 l/m 0 min 0 min 0 W/m 3,2 km/h (1 Bft) 95,74 %
18.03.2023 19:42 13,8 C 12,2 C 8,3 C 82 % 1011,2 hPa 0,0 l/m 0 min 0 min 0 W/m 3,2 km/h (1 Bft) 95,74 %
18.03.2023 19:44 13,7 C 12,2 C 8,3 C 82 % 1011,2 hPa 0,0 l/m 0 min 0 min 0 W/m 3,2 km/h (1 Bft) 93,62 %
18.03.2023 19:46 13,7 C 12,2 C 8,3 C 82 % 1011,2 hPa 0,0 l/m 0 min 0 min 0 W/m 3,2 km/h (1 Bft) 93,48 %
18.03.2023 19:48 13,6 C 12,2 C 8,3 C 82 % 1011,2 hPa 0,0 l/m 0 min 0 min 0 W/m 0,0 km/h (0 Bft) 95,74 %
18.03.2023 19:50 13,6 C 12,2 C 7,8 C 82 % 1011,3 hPa 0,0 l/m 0 min 0 min 0 W/m 3,2 km/h (1 Bft) 97,87 %
18.03.2023 19:52 13,5 C 12,2 C 7,8 C 82 % 1011,3 hPa 0,0 l/m 0 min 0 min 0 W/m 3,2 km/h (1 Bft) 97,87 %
18.03.2023 19:54 13,4 C 12,2 C 7,8 C 82 % 1011,3 hPa 0,0 l/m 0 min 0 min 0 W/m 3,2 km/h (1 Bft) 97,87 %
18.03.2023 19:56 13,4 C 11,7 C 7,8 C 82 % 1011,3 hPa 0,0 l/m 0 min 0 min 0 W/m 3,2 km/h (1 Bft) 97,87 %
18.03.2023 19:58 13,4 C 12,2 C 7,8 C 82 % 1011,3 hPa 0,0 l/m 0 min 0 min 0 W/m 3,2 km/h (1 Bft) 97,83 %
18.03.2023 20:00 13,3 C 12,2 C 7,8 C 82 % 1011,3 hPa 0,0 l/m 0 min 0 min 0 W/m 3,2 km/h (1 Bft) 97,87 %
18.03.2023 20:02 13,3 C 11,7 C 7,8 C 82 % 1011,3 hPa 0,0 l/m 0 min 0 min 0 W/m 3,2 km/h (1 Bft) 97,87 %
18.03.2023 20:04 13,2 C 11,7 C 7,8 C 82 % 1011,3 hPa 0,0 l/m 0 min 0 min 0 W/m 3,2 km/h (1 Bft) 93,62 %
18.03.2023 20:06 13,2 C 12,2 C 7,8 C 82 % 1011,3 hPa 0,0 l/m 0 min 0 min 0 W/m 3,2 km/h (1 Bft) 97,87 %
18.03.2023 20:08 13,2 C 11,7 C 7,8 C 82 % 1011,3 hPa 0,0 l/m 0 min 0 min 0 W/m 3,2 km/h (1 Bft) 97,87 %
18.03.2023 20:10 13,1 C 12,2 C 7,8 C 82 % 1011,3 hPa 0,0 l/m 0 min 0 min 0 W/m 3,2 km/h (1 Bft) 95,74 %
18.03.2023 20:12 13,1 C 11,7 C 7,8 C 82 % 1011,3 hPa 0,0 l/m 0 min 0 min 0 W/m 6,4 km/h (2 Bft) 97,83 %
18.03.2023 20:14 13,1 C 11,7 C 7,8 C 82 % 1011,3 hPa 0,0 l/m 0 min 0 min 0 W/m 3,2 km/h (1 Bft) 98,18 %
18.03.2023 20:16 13,1 C 11,7 C 7,8 C 82 % 1011,3 hPa 0,0 l/m 0 min 0 min 0 W/m 3,2 km/h (1 Bft) 97,83 %
18.03.2023 20:18 13,0 C 11,7 C 7,8 C 82 % 1011,3 hPa 0,0 l/m 0 min 0 min 0 W/m 3,2 km/h (1 Bft) 97,87 %
18.03.2023 20:20 12,9 C 11,7 C 7,8 C 82 % 1011,4 hPa 0,0 l/m 0 min 0 min 0 W/m 3,2 km/h (1 Bft) 97,87 %
18.03.2023 20:22 12,9 C 11,7 C 7,8 C 82 % 1011,4 hPa 0,0 l/m 0 min 0 min 0 W/m 0,0 km/h (0 Bft) 93,62 %
18.03.2023 20:24 12,9 C 11,7 C 7,8 C 82 % 1011,4 hPa 0,0 l/m 0 min 0 min 0 W/m 3,2 km/h (1 Bft) 97,87 %
18.03.2023 20:26 12,9 C 11,7 C 7,8 C 82 % 1011,4 hPa 0,0 l/m 0 min 0 min 0 W/m 3,2 km/h (1 Bft) 97,87 %
18.03.2023 20:28 12,8 C 11,7 C 7,8 C 82 % 1011,4 hPa 0,0 l/m 0 min 0 min 0 W/m 0,0 km/h (0 Bft) 95,74 %
18.03.2023 20:30 12,8 C 11,7 C 7,8 C 82 % 1011,4 hPa 0,0 l/m 0 min 0 min 0 W/m 0,0 km/h (0 Bft) 97,87 %
18.03.2023 20:32 12,8 C 12,2 C 7,8 C 82 % 1011,5 hPa 0,0 l/m 0 min 0 min 0 W/m 3,2 km/h (1 Bft) 95,65 %
18.03.2023 20:34 12,8 C 12,2 C 7,8 C 82 % 1011,4 hPa 0,0 l/m 0 min 0 min 0 W/m 3,2 km/h (1 Bft) 97,87 %
18.03.2023 20:36 12,8 C 12,2 C 7,8 C 82 % 1011,5 hPa 0,0 l/m 0 min 0 min 0 W/m 3,2 km/h (1 Bft) 97,87 %
18.03.2023 20:38 12,8 C 12,2 C 7,8 C 81 % 1011,5 hPa 0,0 l/m 0 min 0 min 0 W/m 3,2 km/h (1 Bft) 97,87 %
18.03.2023 20:40 12,8 C 12,2 C 7,8 C 81 % 1011,5 hPa 0,0 l/m 0 min 0 min 0 W/m 3,2 km/h (1 Bft) 97,37 %
18.03.2023 20:42 12,8 C 12,2 C 8,3 C 81 % 1011,5 hPa 0,0 l/m 0 min 0 min 0 W/m 3,2 km/h (1 Bft) 97,87 %
18.03.2023 20:44 12,8 C 12,2 C 8,3 C 81 % 1011,5 hPa 0,0 l/m 0 min 0 min 0 W/m 6,4 km/h (2 Bft) 97,92 %
18.03.2023 20:46 12,7 C 12,2 C 8,3 C 81 % 1011,5 hPa 0,0 l/m 0 min 0 min 0 W/m 6,4 km/h (2 Bft) 97,87 %
18.03.2023 20:48 12,7 C 12,2 C 8,3 C 81 % 1011,5 hPa 0,0 l/m 0 min 0 min 0 W/m 6,4 km/h (2 Bft) 97,87 %
18.03.2023 20:50 12,7 C 12,2 C 8,3 C 80 % 1011,5 hPa 0,0 l/m 0 min 0 min 0 W/m 12,9 km/h (3 Bft) 97,87 %
18.03.2023 20:52 12,7 C 12,2 C 8,3 C 80 % 1011,5 hPa 0,0 l/m 0 min 0 min 0 W/m 3,2 km/h (1 Bft) 97,87 %
18.03.2023 20:54 12,7 C 11,7 C 8,3 C 80 % 1011,5 hPa 0,0 l/m 0 min 0 min 0 W/m 3,2 km/h (1 Bft) 97,67 %
18.03.2023 20:56 12,7 C 11,7 C 8,3 C 80 % 1011,5 hPa 0,0 l/m 0 min 0 min 0 W/m 3,2 km/h (1 Bft) 100,00 %
18.03.2023 20:58 12,7 C 11,7 C 7,8 C 80 % 1011,5 hPa 0,0 l/m 0 min 0 min 0 W/m 6,4 km/h (2 Bft) 100,00 %
18.03.2023 21:00 12,7 C 11,7 C 8,3 C 80 % 1011,6 hPa 0,0 l/m 0 min 0 min 0 W/m 6,4 km/h (2 Bft) 100,00 %
18.03.2023 21:02 12,7 C 11,7 C 7,8 C 80 % 1011,7 hPa 0,0 l/m 0 min 0 min 0 W/m 6,4 km/h (2 Bft) 97,87 %
18.03.2023 21:04 12,7 C 11,7 C 7,8 C 79 % 1011,7 hPa 0,0 l/m 0 min 0 min 0 W/m 6,4 km/h (2 Bft) 100,00 %
18.03.2023 21:06 12,7 C 11,7 C 7,8 C 79 % 1011,7 hPa 0,0 l/m 0 min 0 min 0 W/m 6,4 km/h (2 Bft) 100,00 %
18.03.2023 21:08 12,7 C 11,7 C 7,8 C 79 % 1011,7 hPa 0,0 l/m 0 min 0 min 0 W/m 3,2 km/h (1 Bft) 100,00 %
18.03.2023 21:10 12,7 C 11,7 C 7,8 C 79 % 1011,7 hPa 0,0 l/m 0 min 0 min 0 W/m 3,2 km/h (1 Bft) 97,87 %
18.03.2023 21:12 12,6 C 11,7 C 7,8 C 79 % 1011,7 hPa 0,0 l/m 0 min 0 min 0 W/m 3,2 km/h (1 Bft) 97,87 %
18.03.2023 21:14 12,6 C 11,7 C 7,8 C 79 % 1011,8 hPa 0,0 l/m 0 min 0 min 0 W/m 3,2 km/h (1 Bft) 97,87 %
18.03.2023 21:16 12,6 C 11,7 C 7,8 C 79 % 1011,7 hPa 0,0 l/m 0 min 0 min 0 W/m 6,4 km/h (2 Bft) 97,87 %
18.03.2023 21:18 12,6 C 11,7 C 7,8 C 79 % 1011,8 hPa 0,0 l/m 0 min 0 min 0 W/m 6,4 km/h (2 Bft) 95,74 %
18.03.2023 21:20 12,6 C 11,7 C 7,8 C 79 % 1011,8 hPa 0,0 l/m 0 min 0 min 0 W/m 6,4 km/h (2 Bft) 100,00 %
18.03.2023 21:22 12,6 C 11,7 C 7,8 C 79 % 1011,7 hPa 0,0 l/m 0 min 0 min 0 W/m 3,2 km/h (1 Bft) 97,87 %
18.03.2023 21:24 12,6 C 11,7 C 7,8 C 79 % 1011,8 hPa 0,0 l/m 0 min 0 min 0 W/m 6,4 km/h (2 Bft) 97,87 %
18.03.2023 21:26 12,6 C 11,7 C 7,8 C 79 % 1011,8 hPa 0,0 l/m 0 min 0 min 0 W/m 6,4 km/h (2 Bft) 95,74 %
18.03.2023 21:28 12,6 C 11,7 C 7,8 C 79 % 1011,8 hPa 0,0 l/m 0 min 0 min 0 W/m 6,4 km/h (2 Bft) 95,74 %
18.03.2023 21:30 12,6 C 11,7 C 7,8 C 78 % 1011,8 hPa 0,0 l/m 0 min 0 min 0 W/m 6,4 km/h (2 Bft) 97,87 %
18.03.2023 21:32 12,5 C 11,7 C 7,8 C 78 % 1011,9 hPa 0,0 l/m 0 min 0 min 0 W/m 6,4 km/h (2 Bft) 97,87 %
18.03.2023 21:34 12,5 C 11,7 C 7,8 C 78 % 1011,9 hPa 0,0 l/m 0 min 0 min 0 W/m 9,7 km/h (2 Bft) 95,65 %
18.03.2023 21:36 12,5 C 11,7 C 7,8 C 78 % 1011,9 hPa 0,0 l/m 0 min 0 min 0 W/m 3,2 km/h (1 Bft) 97,87 %
18.03.2023 21:38 12,5 C 11,7 C 7,8 C 78 % 1011,9 hPa 0,0 l/m 0 min 0 min 0 W/m 6,4 km/h (2 Bft) 95,74 %
18.03.2023 21:40 12,5 C 11,7 C 7,8 C 78 % 1011,9 hPa 0,0 l/m 0 min 0 min 0 W/m 6,4 km/h (2 Bft) 97,87 %
18.03.2023 21:42 12,4 C 11,7 C 7,8 C 79 % 1011,9 hPa 0,0 l/m 0 min 0 min 0 W/m 3,2 km/h (1 Bft) 97,62 %
18.03.2023 21:44 12,4 C 11,7 C 7,8 C 79 % 1011,9 hPa 0,0 l/m 0 min 0 min 0 W/m 3,2 km/h (1 Bft) 97,87 %
18.03.2023 21:46 12,4 C 11,7 C 7,8 C 79 % 1011,9 hPa 0,0 l/m 0 min 0 min 0 W/m 6,4 km/h (2 Bft) 95,74 %
18.03.2023 21:48 12,4 C 11,7 C 7,8 C 79 % 1012,0 hPa 0,0 l/m 0 min 0 min 0 W/m 3,2 km/h (1 Bft) 95,74 %
18.03.2023 21:50 12,4 C 11,7 C 7,8 C 79 % 1012,0 hPa 0,0 l/m 0 min 0 min 0 W/m 6,4 km/h (2 Bft) 97,83 %
18.03.2023 21:52 12,4 C 11,7 C 7,8 C 79 % 1012,0 hPa 0,0 l/m 0 min 0 min 0 W/m 3,2 km/h (1 Bft) 97,87 %
18.03.2023 21:54 12,4 C 11,7 C 7,8 C 79 % 1012,0 hPa 0,0 l/m 0 min 0 min 0 W/m 6,4 km/h (2 Bft) 95,74 %
18.03.2023 21:56 12,3 C 11,7 C 7,8 C 79 % 1012,0 hPa 0,0 l/m 0 min 0 min 0 W/m 6,4 km/h (2 Bft) 100,00 %
18.03.2023 21:58 12,3 C 11,1 C 7,8 C 79 % 1012,0 hPa 0,0 l/m 0 min 0 min 0 W/m 6,4 km/h (2 Bft) 97,87 %
18.03.2023 22:00 12,3 C 11,1 C 7,8 C 79 % 1012,0 hPa 0,0 l/m 0 min 0 min 0 W/m 6,4 km/h (2 Bft) 97,87 %
18.03.2023 22:02 12,3 C 11,1 C 7,8 C 79 % 1012,1 hPa 0,0 l/m 0 min 0 min 0 W/m 6,4 km/h (2 Bft) 100,00 %
18.03.2023 22:04 12,3 C 11,1 C 7,2 C 79 % 1012,1 hPa 0,0 l/m 0 min 0 min 0 W/m 3,2 km/h (1 Bft) 97,92 %
18.03.2023 22:06 12,3 C 11,1 C 7,2 C 79 % 1012,1 hPa 0,0 l/m 0 min 0 min 0 W/m 6,4 km/h (2 Bft) 100,00 %
18.03.2023 22:08 12,2 C 11,1 C 7,2 C 79 % 1012,1 hPa 0,0 l/m 0 min 0 min 0 W/m 6,4 km/h (2 Bft) 100,00 %
18.03.2023 22:10 12,2 C 11,1 C 7,2 C 79 % 1012,1 hPa 0,0 l/m 0 min 0 min 0 W/m 12,9 km/h (3 Bft) 100,00 %
18.03.2023 22:12 12,2 C 11,1 C 7,2 C 79 % 1012,1 hPa 0,0 l/m 0 min 0 min 0 W/m 9,7 km/h (2 Bft) 100,00 %
18.03.2023 22:14 12,2 C 11,1 C 7,2 C 79 % 1012,2 hPa 0,0 l/m 0 min 0 min 0 W/m 9,7 km/h (2 Bft) 97,87 %
18.03.2023 22:16 12,2 C 11,1 C 7,2 C 79 % 1012,2 hPa 0,0 l/m 0 min 0 min 0 W/m 9,7 km/h (2 Bft) 97,83 %
18.03.2023 22:18 12,2 C 11,1 C 7,2 C 79 % 1012,2 hPa 0,0 l/m 0 min 0 min 0 W/m 6,4 km/h (2 Bft) 97,87 %
18.03.2023 22:20 12,2 C 11,7 C 7,2 C 79 % 1012,2 hPa 0,0 l/m 0 min 0 min 0 W/m 6,4 km/h (2 Bft) 97,87 %
18.03.2023 22:22 12,2 C 11,7 C 7,2 C 79 % 1012,2 hPa 0,0 l/m 0 min 0 min 0 W/m 9,7 km/h (2 Bft) 96,30 %
18.03.2023 22:24 12,2 C 11,7 C 7,8 C 79 % 1012,3 hPa 0,0 l/m 0 min 0 min 0 W/m 9,7 km/h (2 Bft) 98,00 %
18.03.2023 22:26 12,2 C 11,7 C 7,8 C 79 % 1012,3 hPa 0,0 l/m 0 min 0 min 0 W/m 12,9 km/h (3 Bft) 97,87 %
18.03.2023 22:28 12,2 C 11,1 C 7,2 C 79 % 1012,2 hPa 0,0 l/m 0 min 0 min 0 W/m 9,7 km/h (2 Bft) 97,30 %
18.03.2023 22:30 12,2 C 11,1 C 7,2 C 79 % 1012,2 hPa 0,0 l/m 0 min 0 min 0 W/m 6,4 km/h (2 Bft) 97,83 %
18.03.2023 22:32 12,2 C 11,1 C 7,2 C 79 % 1012,2 hPa 0,0 l/m 0 min 0 min 0 W/m 9,7 km/h (2 Bft) 95,74 %
18.03.2023 22:34 12,2 C 11,1 C 7,2 C 79 % 1012,2 hPa 0,0 l/m 0 min 0 min 0 W/m 3,2 km/h (1 Bft) 95,74 %
18.03.2023 22:36 12,2 C 11,1 C 7,2 C 79 % 1012,2 hPa 0,0 l/m 0 min 0 min 0 W/m 6,4 km/h (2 Bft) 95,74 %
18.03.2023 22:38 12,2 C 11,1 C 7,2 C 79 % 1012,1 hPa 0,0 l/m 0 min 0 min 0 W/m 3,2 km/h (1 Bft) 95,74 %
18.03.2023 22:40 12,2 C 11,1 C 7,2 C 79 % 1012,1 hPa 0,0 l/m 0 min 0 min 0 W/m 3,2 km/h (1 Bft) 95,74 %
18.03.2023 22:42 12,2 C 11,1 C 7,2 C 79 % 1012,0 hPa 0,0 l/m 0 min 0 min 0 W/m 3,2 km/h (1 Bft) 91,30 %
18.03.2023 22:44 12,2 C 11,1 C 7,2 C 80 % 1012,0 hPa 0,0 l/m 0 min 0 min 0 W/m 6,4 km/h (2 Bft) 97,87 %
18.03.2023 22:46 12,2 C 11,1 C 7,2 C 80 % 1012,0 hPa 0,0 l/m 0 min 0 min 0 W/m 0,0 km/h (0 Bft) 97,87 %
18.03.2023 22:48 12,2 C 11,1 C 7,2 C 80 % 1012,0 hPa 0,0 l/m 0 min 0 min 0 W/m 0,0 km/h (0 Bft) 95,74 %
18.03.2023 22:50 12,2 C 11,1 C 7,2 C 80 % 1012,0 hPa 0,0 l/m 0 min 0 min 0 W/m 3,2 km/h (1 Bft) 100,00 %
18.03.2023 22:52 12,2 C 11,1 C 7,2 C 80 % 1012,0 hPa 0,0 l/m 0 min 0 min 0 W/m 3,2 km/h (1 Bft) 97,87 %
18.03.2023 22:54 12,2 C 11,1 C 7,2 C 80 % 1012,0 hPa 0,0 l/m 0 min 0 min 0 W/m 3,2 km/h (1 Bft) 95,74 %
18.03.2023 22:56 12,2 C 11,1 C 7,2 C 80 % 1012,0 hPa 0,0 l/m 0 min 0 min 0 W/m 3,2 km/h (1 Bft) 97,83 %
18.03.2023 22:58 12,2 C 11,1 C 7,2 C 80 % 1012,0 hPa 0,0 l/m 0 min 0 min 0 W/m 3,2 km/h (1 Bft) 93,62 %
18.03.2023 23:00 12,2 C 11,1 C 7,2 C 80 % 1012,0 hPa 0,0 l/m 0 min 0 min 0 W/m 3,2 km/h (1 Bft) 97,87 %
18.03.2023 23:02 12,2 C 11,1 C 7,2 C 80 % 1012,0 hPa 0,0 l/m 0 min 0 min 0 W/m 0,0 km/h (0 Bft) 97,87 %
18.03.2023 23:04 12,2 C 11,1 C 7,2 C 80 % 1012,1 hPa 0,0 l/m 0 min 0 min 0 W/m 3,2 km/h (1 Bft) 95,74 %
18.03.2023 23:06 12,1 C 11,1 C 7,2 C 80 % 1012,0 hPa 0,0 l/m 0 min 0 min 0 W/m 3,2 km/h (1 Bft) 98,28 %
18.03.2023 23:08 12,1 C 11,1 C 7,2 C 80 % 1012,0 hPa 0,0 l/m 0 min 0 min 0 W/m 0,0 km/h (0 Bft) 97,22 %
18.03.2023 23:10 12,1 C 11,1 C 7,2 C 80 % 1012,0 hPa 0,0 l/m 0 min 0 min 0 W/m 0,0 km/h (0 Bft) 97,87 %
18.03.2023 23:12 12,1 C 11,1 C 7,2 C 80 % 1012,0 hPa 0,0 l/m 0 min 0 min 0 W/m 3,2 km/h (1 Bft) 97,83 %
18.03.2023 23:14 12,1 C 11,1 C 7,2 C 80 % 1012,0 hPa 0,0 l/m 0 min 0 min 0 W/m 3,2 km/h (1 Bft) 97,87 %
18.03.2023 23:16 12,1 C 11,1 C 7,2 C 80 % 1011,9 hPa 0,0 l/m 0 min 0 min 0 W/m 0,0 km/h (0 Bft) 95,74 %
18.03.2023 23:18 12,1 C 11,1 C 7,2 C 80 % 1011,9 hPa 0,0 l/m 0 min 0 min 0 W/m 0,0 km/h (0 Bft) 97,87 %
18.03.2023 23:20 12,1 C 11,1 C 7,2 C 80 % 1011,8 hPa 0,0 l/m 0 min 0 min 0 W/m 3,2 km/h (1 Bft) 97,87 %
18.03.2023 23:22 12,1 C 11,1 C 7,2 C 80 % 1011,8 hPa 0,0 l/m 0 min 0 min 0 W/m 3,2 km/h (1 Bft) 97,87 %
18.03.2023 23:24 12,1 C 11,1 C 7,2 C 80 % 1011,8 hPa 0,0 l/m 0 min 0 min 0 W/m 3,2 km/h (1 Bft) 97,83 %
18.03.2023 23:26 12,1 C 11,1 C 7,2 C 80 % 1011,7 hPa 0,0 l/m 0 min 0 min 0 W/m 0,0 km/h (0 Bft) 100,00 %
18.03.2023 23:28 12,1 C 11,1 C 7,2 C 80 % 1011,7 hPa 0,0 l/m 0 min 0 min 0 W/m 3,2 km/h (1 Bft) 100,00 %
18.03.2023 23:30 12,1 C 11,1 C 7,2 C 80 % 1011,7 hPa 0,0 l/m 0 min 0 min 0 W/m 3,2 km/h (1 Bft) 97,87 %
18.03.2023 23:32 12,1 C 11,1 C 7,2 C 80 % 1011,8 hPa 0,0 l/m 0 min 0 min 0 W/m 3,2 km/h (1 Bft) 100,00 %
18.03.2023 23:34 12,1 C 11,1 C 7,2 C 80 % 1011,7 hPa 0,0 l/m 0 min 0 min 0 W/m 3,2 km/h (1 Bft) 100,00 %
18.03.2023 23:36 12,1 C 11,1 C 7,2 C 80 % 1011,7 hPa 0,0 l/m 0 min 0 min 0 W/m 3,2 km/h (1 Bft) 100,00 %
18.03.2023 23:38 12,1 C 11,1 C 7,2 C 80 % 1011,8 hPa 0,0 l/m 0 min 0 min 0 W/m 3,2 km/h (1 Bft) 95,74 %
18.03.2023 23:40 12,1 C 11,1 C 7,2 C 80 % 1011,8 hPa 0,0 l/m 0 min 0 min 0 W/m 3,2 km/h (1 Bft) 97,87 %
18.03.2023 23:42 12,1 C 11,1 C 7,2 C 80 % 1011,7 hPa 0,0 l/m 0 min 0 min 0 W/m 3,2 km/h (1 Bft) 95,74 %
18.03.2023 23:44 12,1 C 11,1 C 7,2 C 80 % 1011,9 hPa 0,0 l/m 0 min 0 min 0 W/m 6,4 km/h (2 Bft) 97,87 %
18.03.2023 23:46 12,1 C 11,1 C 7,2 C 81 % 1012,0 hPa 0,0 l/m 0 min 0 min 0 W/m 6,4 km/h (2 Bft) 97,87 %
18.03.2023 23:48 12,1 C 11,1 C 7,2 C 81 % 1012,0 hPa 0,0 l/m 0 min 0 min 0 W/m 3,2 km/h (1 Bft) 97,87 %
18.03.2023 23:50 12,0 C 11,1 C 7,2 C 81 % 1012,0 hPa 0,0 l/m 0 min 0 min 0 W/m 3,2 km/h (1 Bft) 97,83 %
18.03.2023 23:52 12,0 C 11,1 C 7,2 C 81 % 1012,1 hPa 0,0 l/m 0 min 0 min 0 W/m 3,2 km/h (1 Bft) 97,87 %
18.03.2023 23:54 12,0 C 11,1 C 7,2 C 81 % 1012,1 hPa 0,0 l/m 0 min 0 min 0 W/m 3,2 km/h (1 Bft) 95,74 %
18.03.2023 23:56 12,0 C 11,1 C 7,2 C 81 % 1012,1 hPa 0,0 l/m 0 min 2 min 0 W/m 9,7 km/h (2 Bft) 95,74 %
18.03.2023 23:58 11,9 C 11,1 C 7,2 C 81 % 1012,2 hPa 0,0 l/m 0 min 2 min 0 W/m 9,7 km/h (2 Bft) 97,87 %
_ Min-Zeit 07:18 03:46 03:50 11:50 00:34 - - - - 02:38 08:50
Minimum _ 8,9 C 7,8 C 3,9 C 67 % 1008,8 hPa - - - - 0,0 km/h (0 Bft) 42,55 %
_ Max-Zeit 11:52 11:22 11:20 08:28 22:24 02:16 08:54 02:14 11:52 14:44 00:08
Maximum _ 18,3 C 28,9 C 20,6 C 95 % 1012,3 hPa 0,2 l/m 2 min 4 min 751 W/m 29,0 km/h
S-SW (5 Bft)
100,00 %
Durchschnitt _ 13,2 C 13,5 C 8,6 C 82 % 1010,6 hPa #1,0 l/m #5:44 h #46 min. 247 W/m 7,4 km/h (2 Bft) 96,44 %
© 2023 W. Hausmann